<?xml version="1.0" encoding="UTF-8" standalone="no" ?>
<gpx xmlns="http://www.topografix.com/GPX/1/1" xmlns:xsi="http://www.w3.org/2001/XMLSchema-instance" xsi:schemaLocation="http://www.topografix.com/GPX/1/1 http://www.topografix.com/GPX/1/1/gpx.xsd" version="1.1" creator="VisuGPX - https://www.visugpx.com">
  <metadata>
    <name>Montée à Moye</name>
    <desc><![CDATA[La montée par les chemins à Moye.]]></desc>
  </metadata>
  <trk>
    <name><![CDATA[2012-10-28T10:34:48Z]]></name>
    <trkseg>
      <trkpt lat="45.84598" lon="5.96314">
        <ele>348.1346436</ele>
        <time>2012-10-28T10:34:48Z</time>
      </trkpt>
      <trkpt lat="45.84605" lon="5.96312">
        <ele>348.6152344</ele>
        <time>2012-10-28T10:34:53Z</time>
      </trkpt>
      <trkpt lat="45.84617" lon="5.96309">
        <ele>351.0184326</ele>
        <time>2012-10-28T10:34:57Z</time>
      </trkpt>
      <trkpt lat="45.84631" lon="5.96306">
        <ele>352.9411621</ele>
        <time>2012-10-28T10:35:02Z</time>
      </trkpt>
      <trkpt lat="45.84645" lon="5.96304">
        <ele>353.421875</ele>
        <time>2012-10-28T10:35:07Z</time>
      </trkpt>
      <trkpt lat="45.84662" lon="5.96302">
        <ele>351.9798584</ele>
        <time>2012-10-28T10:35:13Z</time>
      </trkpt>
      <trkpt lat="45.84676" lon="5.96308">
        <ele>350.057251</ele>
        <time>2012-10-28T10:35:17Z</time>
      </trkpt>
      <trkpt lat="45.8469" lon="5.96319">
        <ele>347.1732178</ele>
        <time>2012-10-28T10:35:21Z</time>
      </trkpt>
      <trkpt lat="45.847" lon="5.96328">
        <ele>346.2120361</ele>
        <time>2012-10-28T10:35:25Z</time>
      </trkpt>
      <trkpt lat="45.84708" lon="5.96335">
        <ele>345.2506104</ele>
        <time>2012-10-28T10:35:29Z</time>
      </trkpt>
      <trkpt lat="45.84719" lon="5.96345">
        <ele>344.2894287</ele>
        <time>2012-10-28T10:35:33Z</time>
      </trkpt>
      <trkpt lat="45.84733" lon="5.96359">
        <ele>342.3666992</ele>
        <time>2012-10-28T10:35:38Z</time>
      </trkpt>
      <trkpt lat="45.84746" lon="5.9637">
        <ele>340.4440918</ele>
        <time>2012-10-28T10:35:43Z</time>
      </trkpt>
      <trkpt lat="45.84759" lon="5.96383">
        <ele>339.0020752</ele>
        <time>2012-10-28T10:35:48Z</time>
      </trkpt>
      <trkpt lat="45.84771" lon="5.96395">
        <ele>336.1181641</ele>
        <time>2012-10-28T10:35:52Z</time>
      </trkpt>
      <trkpt lat="45.84782" lon="5.96407">
        <ele>335.1567383</ele>
        <time>2012-10-28T10:35:57Z</time>
      </trkpt>
      <trkpt lat="45.84798" lon="5.96421">
        <ele>333.7147217</ele>
        <time>2012-10-28T10:36:03Z</time>
      </trkpt>
      <trkpt lat="45.84808" lon="5.9643">
        <ele>333.2341309</ele>
        <time>2012-10-28T10:36:07Z</time>
      </trkpt>
      <trkpt lat="45.84821" lon="5.96441">
        <ele>332.75354</ele>
        <time>2012-10-28T10:36:12Z</time>
      </trkpt>
      <trkpt lat="45.84835" lon="5.96455">
        <ele>334.1954346</ele>
        <time>2012-10-28T10:36:17Z</time>
      </trkpt>
      <trkpt lat="45.84849" lon="5.9647">
        <ele>335.6373291</ele>
        <time>2012-10-28T10:36:22Z</time>
      </trkpt>
      <trkpt lat="45.84858" lon="5.9648">
        <ele>336.1181641</ele>
        <time>2012-10-28T10:36:26Z</time>
      </trkpt>
      <trkpt lat="45.8487" lon="5.96496">
        <ele>338.0407715</ele>
        <time>2012-10-28T10:36:32Z</time>
      </trkpt>
      <trkpt lat="45.8488" lon="5.96513">
        <ele>338.0407715</ele>
        <time>2012-10-28T10:36:37Z</time>
      </trkpt>
      <trkpt lat="45.84887" lon="5.96528">
        <ele>338.0407715</ele>
        <time>2012-10-28T10:36:41Z</time>
      </trkpt>
      <trkpt lat="45.84894" lon="5.96527">
        <ele>338.0407715</ele>
        <time>2012-10-28T10:36:45Z</time>
      </trkpt>
      <trkpt lat="45.8491" lon="5.96509">
        <ele>334.6761475</ele>
        <time>2012-10-28T10:36:52Z</time>
      </trkpt>
      <trkpt lat="45.84916" lon="5.96501">
        <ele>333.7147217</ele>
        <time>2012-10-28T10:36:55Z</time>
      </trkpt>
      <trkpt lat="45.84927" lon="5.96486">
        <ele>333.7147217</ele>
        <time>2012-10-28T10:37:00Z</time>
      </trkpt>
      <trkpt lat="45.84939" lon="5.96468">
        <ele>336.1181641</ele>
        <time>2012-10-28T10:37:06Z</time>
      </trkpt>
      <trkpt lat="45.84945" lon="5.96453">
        <ele>337.0794678</ele>
        <time>2012-10-28T10:37:10Z</time>
      </trkpt>
      <trkpt lat="45.84956" lon="5.96439">
        <ele>337.0794678</ele>
        <time>2012-10-28T10:37:15Z</time>
      </trkpt>
      <trkpt lat="45.84958" lon="5.96437">
        <ele>336.598877</ele>
        <time>2012-10-28T10:37:16Z</time>
      </trkpt>
      <trkpt lat="45.84972" lon="5.96422">
        <ele>335.1567383</ele>
        <time>2012-10-28T10:37:22Z</time>
      </trkpt>
      <trkpt lat="45.84978" lon="5.96411">
        <ele>339.0020752</ele>
        <time>2012-10-28T10:37:25Z</time>
      </trkpt>
      <trkpt lat="45.84992" lon="5.96399">
        <ele>339.9633789</ele>
        <time>2012-10-28T10:37:31Z</time>
      </trkpt>
      <trkpt lat="45.85008" lon="5.96389">
        <ele>339.0020752</ele>
        <time>2012-10-28T10:37:37Z</time>
      </trkpt>
      <trkpt lat="45.85025" lon="5.96379">
        <ele>336.1181641</ele>
        <time>2012-10-28T10:37:43Z</time>
      </trkpt>
      <trkpt lat="45.85042" lon="5.96362">
        <ele>334.1954346</ele>
        <time>2012-10-28T10:37:50Z</time>
      </trkpt>
      <trkpt lat="45.8505" lon="5.96353">
        <ele>334.1954346</ele>
        <time>2012-10-28T10:37:54Z</time>
      </trkpt>
      <trkpt lat="45.85054" lon="5.96336">
        <ele>334.6761475</ele>
        <time>2012-10-28T10:37:58Z</time>
      </trkpt>
      <trkpt lat="45.85058" lon="5.96316">
        <ele>335.1567383</ele>
        <time>2012-10-28T10:38:03Z</time>
      </trkpt>
      <trkpt lat="45.85061" lon="5.963">
        <ele>336.1181641</ele>
        <time>2012-10-28T10:38:07Z</time>
      </trkpt>
      <trkpt lat="45.85064" lon="5.96284">
        <ele>334.6761475</ele>
        <time>2012-10-28T10:38:11Z</time>
      </trkpt>
      <trkpt lat="45.85069" lon="5.96263">
        <ele>336.598877</ele>
        <time>2012-10-28T10:38:16Z</time>
      </trkpt>
      <trkpt lat="45.85076" lon="5.96248">
        <ele>336.598877</ele>
        <time>2012-10-28T10:38:20Z</time>
      </trkpt>
      <trkpt lat="45.85086" lon="5.96237">
        <ele>336.598877</ele>
        <time>2012-10-28T10:38:24Z</time>
      </trkpt>
      <trkpt lat="45.85097" lon="5.96231">
        <ele>338.0407715</ele>
        <time>2012-10-28T10:38:28Z</time>
      </trkpt>
      <trkpt lat="45.85117" lon="5.96222">
        <ele>340.9246826</ele>
        <time>2012-10-28T10:38:35Z</time>
      </trkpt>
      <trkpt lat="45.85123" lon="5.9622">
        <ele>339.9633789</ele>
        <time>2012-10-28T10:38:37Z</time>
      </trkpt>
      <trkpt lat="45.85129" lon="5.96212">
        <ele>338.5214844</ele>
        <time>2012-10-28T10:38:41Z</time>
      </trkpt>
      <trkpt lat="45.85128" lon="5.96195">
        <ele>337.5600586</ele>
        <time>2012-10-28T10:38:45Z</time>
      </trkpt>
      <trkpt lat="45.85128" lon="5.9619">
        <ele>337.5600586</ele>
        <time>2012-10-28T10:38:46Z</time>
      </trkpt>
      <trkpt lat="45.85132" lon="5.96165">
        <ele>336.598877</ele>
        <time>2012-10-28T10:38:52Z</time>
      </trkpt>
      <trkpt lat="45.8514" lon="5.96154">
        <ele>337.5600586</ele>
        <time>2012-10-28T10:38:56Z</time>
      </trkpt>
      <trkpt lat="45.85158" lon="5.96148">
        <ele>336.1181641</ele>
        <time>2012-10-28T10:39:02Z</time>
      </trkpt>
      <trkpt lat="45.85167" lon="5.96143">
        <ele>337.5600586</ele>
        <time>2012-10-28T10:39:06Z</time>
      </trkpt>
      <trkpt lat="45.85185" lon="5.96138">
        <ele>335.6373291</ele>
        <time>2012-10-28T10:39:12Z</time>
      </trkpt>
      <trkpt lat="45.85205" lon="5.9613">
        <ele>333.7147217</ele>
        <time>2012-10-28T10:39:19Z</time>
      </trkpt>
      <trkpt lat="45.8522" lon="5.96123">
        <ele>332.2728271</ele>
        <time>2012-10-28T10:39:24Z</time>
      </trkpt>
      <trkpt lat="45.85237" lon="5.96117">
        <ele>329.8695068</ele>
        <time>2012-10-28T10:39:30Z</time>
      </trkpt>
      <trkpt lat="45.85253" lon="5.96114">
        <ele>327.4661865</ele>
        <time>2012-10-28T10:39:35Z</time>
      </trkpt>
      <trkpt lat="45.85269" lon="5.96112">
        <ele>325.0629883</ele>
        <time>2012-10-28T10:39:40Z</time>
      </trkpt>
      <trkpt lat="45.85283" lon="5.96107">
        <ele>322.659668</ele>
        <time>2012-10-28T10:39:45Z</time>
      </trkpt>
      <trkpt lat="45.85296" lon="5.96104">
        <ele>320.7370605</ele>
        <time>2012-10-28T10:39:50Z</time>
      </trkpt>
      <trkpt lat="45.85301" lon="5.96079">
        <ele>330.8309326</ele>
        <time>2012-10-28T10:39:55Z</time>
      </trkpt>
      <trkpt lat="45.85308" lon="5.96069">
        <ele>331.3115234</ele>
        <time>2012-10-28T10:39:59Z</time>
      </trkpt>
      <trkpt lat="45.8532" lon="5.96056">
        <ele>330.8309326</ele>
        <time>2012-10-28T10:40:04Z</time>
      </trkpt>
      <trkpt lat="45.85327" lon="5.96047">
        <ele>330.3502197</ele>
        <time>2012-10-28T10:40:07Z</time>
      </trkpt>
      <trkpt lat="45.85337" lon="5.96035">
        <ele>331.3115234</ele>
        <time>2012-10-28T10:40:12Z</time>
      </trkpt>
      <trkpt lat="45.85349" lon="5.96021">
        <ele>332.2728271</ele>
        <time>2012-10-28T10:40:17Z</time>
      </trkpt>
      <trkpt lat="45.85358" lon="5.96012">
        <ele>331.7921143</ele>
        <time>2012-10-28T10:40:21Z</time>
      </trkpt>
      <trkpt lat="45.85369" lon="5.96">
        <ele>333.2341309</ele>
        <time>2012-10-28T10:40:26Z</time>
      </trkpt>
      <trkpt lat="45.85379" lon="5.95987">
        <ele>332.75354</ele>
        <time>2012-10-28T10:40:31Z</time>
      </trkpt>
      <trkpt lat="45.8539" lon="5.95972">
        <ele>332.75354</ele>
        <time>2012-10-28T10:40:36Z</time>
      </trkpt>
      <trkpt lat="45.85399" lon="5.95958">
        <ele>332.2728271</ele>
        <time>2012-10-28T10:40:41Z</time>
      </trkpt>
      <trkpt lat="45.85411" lon="5.95944">
        <ele>337.0794678</ele>
        <time>2012-10-28T10:40:47Z</time>
      </trkpt>
      <trkpt lat="45.85421" lon="5.95931">
        <ele>335.6373291</ele>
        <time>2012-10-28T10:40:51Z</time>
      </trkpt>
      <trkpt lat="45.8543" lon="5.95913">
        <ele>334.6761475</ele>
        <time>2012-10-28T10:40:57Z</time>
      </trkpt>
      <trkpt lat="45.85443" lon="5.95901">
        <ele>338.0407715</ele>
        <time>2012-10-28T10:41:03Z</time>
      </trkpt>
      <trkpt lat="45.85455" lon="5.95897">
        <ele>338.5214844</ele>
        <time>2012-10-28T10:41:09Z</time>
      </trkpt>
      <trkpt lat="45.85468" lon="5.95894">
        <ele>337.5600586</ele>
        <time>2012-10-28T10:41:15Z</time>
      </trkpt>
      <trkpt lat="45.85481" lon="5.95895">
        <ele>340.9246826</ele>
        <time>2012-10-28T10:41:21Z</time>
      </trkpt>
      <trkpt lat="45.85495" lon="5.95899">
        <ele>344.7700195</ele>
        <time>2012-10-28T10:41:28Z</time>
      </trkpt>
      <trkpt lat="45.85506" lon="5.95906">
        <ele>347.1732178</ele>
        <time>2012-10-28T10:41:33Z</time>
      </trkpt>
      <trkpt lat="45.85515" lon="5.95913">
        <ele>347.6539307</ele>
        <time>2012-10-28T10:41:38Z</time>
      </trkpt>
      <trkpt lat="45.85522" lon="5.95917">
        <ele>346.692627</ele>
        <time>2012-10-28T10:41:42Z</time>
      </trkpt>
      <trkpt lat="45.85533" lon="5.95921">
        <ele>348.1346436</ele>
        <time>2012-10-28T10:41:47Z</time>
      </trkpt>
      <trkpt lat="45.85547" lon="5.95927">
        <ele>350.057251</ele>
        <time>2012-10-28T10:41:52Z</time>
      </trkpt>
      <trkpt lat="45.85559" lon="5.95932">
        <ele>348.1346436</ele>
        <time>2012-10-28T10:41:57Z</time>
      </trkpt>
      <trkpt lat="45.85582" lon="5.95941">
        <ele>347.6539307</ele>
        <time>2012-10-28T10:42:05Z</time>
      </trkpt>
      <trkpt lat="45.85597" lon="5.95944">
        <ele>346.692627</ele>
        <time>2012-10-28T10:42:10Z</time>
      </trkpt>
      <trkpt lat="45.85609" lon="5.95947">
        <ele>346.692627</ele>
        <time>2012-10-28T10:42:15Z</time>
      </trkpt>
      <trkpt lat="45.85626" lon="5.95952">
        <ele>346.692627</ele>
        <time>2012-10-28T10:42:22Z</time>
      </trkpt>
      <trkpt lat="45.85639" lon="5.95953">
        <ele>347.6539307</ele>
        <time>2012-10-28T10:42:27Z</time>
      </trkpt>
      <trkpt lat="45.85653" lon="5.95957">
        <ele>348.6152344</ele>
        <time>2012-10-28T10:42:31Z</time>
      </trkpt>
      <trkpt lat="45.85668" lon="5.95959">
        <ele>349.0958252</ele>
        <time>2012-10-28T10:42:36Z</time>
      </trkpt>
      <trkpt lat="45.85683" lon="5.95962">
        <ele>348.1346436</ele>
        <time>2012-10-28T10:42:42Z</time>
      </trkpt>
      <trkpt lat="45.85694" lon="5.95965">
        <ele>347.6539307</ele>
        <time>2012-10-28T10:42:46Z</time>
      </trkpt>
      <trkpt lat="45.85707" lon="5.95967">
        <ele>345.7313232</ele>
        <time>2012-10-28T10:42:51Z</time>
      </trkpt>
      <trkpt lat="45.85719" lon="5.95968">
        <ele>345.7313232</ele>
        <time>2012-10-28T10:42:55Z</time>
      </trkpt>
      <trkpt lat="45.85734" lon="5.95961">
        <ele>344.7700195</ele>
        <time>2012-10-28T10:43:01Z</time>
      </trkpt>
      <trkpt lat="45.85744" lon="5.95946">
        <ele>344.7700195</ele>
        <time>2012-10-28T10:43:06Z</time>
      </trkpt>
      <trkpt lat="45.85746" lon="5.95944">
        <ele>344.7700195</ele>
        <time>2012-10-28T10:43:07Z</time>
      </trkpt>
      <trkpt lat="45.85753" lon="5.95927">
        <ele>344.2894287</ele>
        <time>2012-10-28T10:43:12Z</time>
      </trkpt>
      <trkpt lat="45.85758" lon="5.95916">
        <ele>345.7313232</ele>
        <time>2012-10-28T10:43:16Z</time>
      </trkpt>
      <trkpt lat="45.85764" lon="5.95905">
        <ele>346.2120361</ele>
        <time>2012-10-28T10:43:20Z</time>
      </trkpt>
      <trkpt lat="45.85767" lon="5.95883">
        <ele>347.1732178</ele>
        <time>2012-10-28T10:43:26Z</time>
      </trkpt>
      <trkpt lat="45.85772" lon="5.9587">
        <ele>348.1346436</ele>
        <time>2012-10-28T10:43:30Z</time>
      </trkpt>
      <trkpt lat="45.85782" lon="5.95849">
        <ele>348.6152344</ele>
        <time>2012-10-28T10:43:37Z</time>
      </trkpt>
      <trkpt lat="45.85796" lon="5.95824">
        <ele>350.057251</ele>
        <time>2012-10-28T10:43:45Z</time>
      </trkpt>
      <trkpt lat="45.85805" lon="5.95808">
        <ele>351.9798584</ele>
        <time>2012-10-28T10:43:50Z</time>
      </trkpt>
      <trkpt lat="45.85815" lon="5.9579">
        <ele>351.9798584</ele>
        <time>2012-10-28T10:43:55Z</time>
      </trkpt>
      <trkpt lat="45.85823" lon="5.95781">
        <ele>353.421875</ele>
        <time>2012-10-28T10:43:58Z</time>
      </trkpt>
      <trkpt lat="45.85834" lon="5.95768">
        <ele>353.9025879</ele>
        <time>2012-10-28T10:44:03Z</time>
      </trkpt>
      <trkpt lat="45.85846" lon="5.95758">
        <ele>353.421875</ele>
        <time>2012-10-28T10:44:08Z</time>
      </trkpt>
      <trkpt lat="45.85856" lon="5.95746">
        <ele>354.3831787</ele>
        <time>2012-10-28T10:44:13Z</time>
      </trkpt>
      <trkpt lat="45.85868" lon="5.95735">
        <ele>355.3444824</ele>
        <time>2012-10-28T10:44:18Z</time>
      </trkpt>
      <trkpt lat="45.85881" lon="5.95722">
        <ele>358.2283936</ele>
        <time>2012-10-28T10:44:23Z</time>
      </trkpt>
      <trkpt lat="45.8589" lon="5.95712">
        <ele>359.6704102</ele>
        <time>2012-10-28T10:44:27Z</time>
      </trkpt>
      <trkpt lat="45.85903" lon="5.95702">
        <ele>359.1896973</ele>
        <time>2012-10-28T10:44:32Z</time>
      </trkpt>
      <trkpt lat="45.85915" lon="5.95692">
        <ele>358.7089844</ele>
        <time>2012-10-28T10:44:37Z</time>
      </trkpt>
      <trkpt lat="45.85927" lon="5.95682">
        <ele>361.1124268</ele>
        <time>2012-10-28T10:44:42Z</time>
      </trkpt>
      <trkpt lat="45.85938" lon="5.95672">
        <ele>363.0350342</ele>
        <time>2012-10-28T10:44:46Z</time>
      </trkpt>
      <trkpt lat="45.85952" lon="5.95663">
        <ele>364.9576416</ele>
        <time>2012-10-28T10:44:51Z</time>
      </trkpt>
      <trkpt lat="45.85957" lon="5.95659">
        <ele>365.9189453</ele>
        <time>2012-10-28T10:44:53Z</time>
      </trkpt>
      <trkpt lat="45.85969" lon="5.95648">
        <ele>365.9189453</ele>
        <time>2012-10-28T10:44:58Z</time>
      </trkpt>
      <trkpt lat="45.85982" lon="5.95639">
        <ele>364.9576416</ele>
        <time>2012-10-28T10:45:03Z</time>
      </trkpt>
      <trkpt lat="45.85993" lon="5.95632">
        <ele>364.4769287</ele>
        <time>2012-10-28T10:45:07Z</time>
      </trkpt>
      <trkpt lat="45.86004" lon="5.95624">
        <ele>363.0350342</ele>
        <time>2012-10-28T10:45:11Z</time>
      </trkpt>
      <trkpt lat="45.86017" lon="5.95614">
        <ele>362.0737305</ele>
        <time>2012-10-28T10:45:16Z</time>
      </trkpt>
      <trkpt lat="45.86031" lon="5.95601">
        <ele>362.0737305</ele>
        <time>2012-10-28T10:45:22Z</time>
      </trkpt>
      <trkpt lat="45.86046" lon="5.95589">
        <ele>360.6317139</ele>
        <time>2012-10-28T10:45:28Z</time>
      </trkpt>
      <trkpt lat="45.86055" lon="5.95581">
        <ele>360.6317139</ele>
        <time>2012-10-28T10:45:32Z</time>
      </trkpt>
      <trkpt lat="45.86066" lon="5.95567">
        <ele>361.5931396</ele>
        <time>2012-10-28T10:45:37Z</time>
      </trkpt>
      <trkpt lat="45.86076" lon="5.95553">
        <ele>359.6704102</ele>
        <time>2012-10-28T10:45:42Z</time>
      </trkpt>
      <trkpt lat="45.86087" lon="5.95541">
        <ele>358.2283936</ele>
        <time>2012-10-28T10:45:47Z</time>
      </trkpt>
      <trkpt lat="45.86096" lon="5.9553">
        <ele>358.2283936</ele>
        <time>2012-10-28T10:45:52Z</time>
      </trkpt>
      <trkpt lat="45.86099" lon="5.95524">
        <ele>357.7478027</ele>
        <time>2012-10-28T10:45:54Z</time>
      </trkpt>
      <trkpt lat="45.86107" lon="5.95508">
        <ele>358.7089844</ele>
        <time>2012-10-28T10:45:59Z</time>
      </trkpt>
      <trkpt lat="45.86118" lon="5.95487">
        <ele>359.6704102</ele>
        <time>2012-10-28T10:46:05Z</time>
      </trkpt>
      <trkpt lat="45.86125" lon="5.95469">
        <ele>359.1896973</ele>
        <time>2012-10-28T10:46:10Z</time>
      </trkpt>
      <trkpt lat="45.86133" lon="5.9545">
        <ele>359.1896973</ele>
        <time>2012-10-28T10:46:15Z</time>
      </trkpt>
      <trkpt lat="45.8614" lon="5.95431">
        <ele>360.151123</ele>
        <time>2012-10-28T10:46:20Z</time>
      </trkpt>
      <trkpt lat="45.86143" lon="5.95423">
        <ele>360.6317139</ele>
        <time>2012-10-28T10:46:22Z</time>
      </trkpt>
      <trkpt lat="45.86146" lon="5.95415">
        <ele>361.5931396</ele>
        <time>2012-10-28T10:46:24Z</time>
      </trkpt>
      <trkpt lat="45.86153" lon="5.95396">
        <ele>361.1124268</ele>
        <time>2012-10-28T10:46:29Z</time>
      </trkpt>
      <trkpt lat="45.86161" lon="5.95379">
        <ele>360.6317139</ele>
        <time>2012-10-28T10:46:34Z</time>
      </trkpt>
      <trkpt lat="45.86164" lon="5.95371">
        <ele>360.6317139</ele>
        <time>2012-10-28T10:46:36Z</time>
      </trkpt>
      <trkpt lat="45.86171" lon="5.95352">
        <ele>359.6704102</ele>
        <time>2012-10-28T10:46:41Z</time>
      </trkpt>
      <trkpt lat="45.86179" lon="5.95334">
        <ele>358.2283936</ele>
        <time>2012-10-28T10:46:46Z</time>
      </trkpt>
      <trkpt lat="45.86188" lon="5.95317">
        <ele>358.7089844</ele>
        <time>2012-10-28T10:46:51Z</time>
      </trkpt>
      <trkpt lat="45.86193" lon="5.95302">
        <ele>359.6704102</ele>
        <time>2012-10-28T10:46:55Z</time>
      </trkpt>
      <trkpt lat="45.862" lon="5.95285">
        <ele>359.6704102</ele>
        <time>2012-10-28T10:46:59Z</time>
      </trkpt>
      <trkpt lat="45.86216" lon="5.95272">
        <ele>357.2670898</ele>
        <time>2012-10-28T10:47:05Z</time>
      </trkpt>
      <trkpt lat="45.86222" lon="5.95263">
        <ele>356.786377</ele>
        <time>2012-10-28T10:47:08Z</time>
      </trkpt>
      <trkpt lat="45.86233" lon="5.95247">
        <ele>357.7478027</ele>
        <time>2012-10-28T10:47:13Z</time>
      </trkpt>
      <trkpt lat="45.8624" lon="5.95233">
        <ele>359.6704102</ele>
        <time>2012-10-28T10:47:17Z</time>
      </trkpt>
      <trkpt lat="45.86242" lon="5.95223">
        <ele>360.6317139</ele>
        <time>2012-10-28T10:47:19Z</time>
      </trkpt>
      <trkpt lat="45.86255" lon="5.952">
        <ele>363.9963379</ele>
        <time>2012-10-28T10:47:26Z</time>
      </trkpt>
      <trkpt lat="45.86265" lon="5.95185">
        <ele>364.4769287</ele>
        <time>2012-10-28T10:47:31Z</time>
      </trkpt>
      <trkpt lat="45.86276" lon="5.95175">
        <ele>364.4769287</ele>
        <time>2012-10-28T10:47:35Z</time>
      </trkpt>
      <trkpt lat="45.86286" lon="5.95158">
        <ele>362.5543213</ele>
        <time>2012-10-28T10:47:40Z</time>
      </trkpt>
      <trkpt lat="45.86296" lon="5.95143">
        <ele>362.5543213</ele>
        <time>2012-10-28T10:47:45Z</time>
      </trkpt>
      <trkpt lat="45.86307" lon="5.95134">
        <ele>362.0737305</ele>
        <time>2012-10-28T10:47:49Z</time>
      </trkpt>
      <trkpt lat="45.86314" lon="5.95128">
        <ele>362.5543213</ele>
        <time>2012-10-28T10:47:52Z</time>
      </trkpt>
      <trkpt lat="45.86329" lon="5.95113">
        <ele>363.5157471</ele>
        <time>2012-10-28T10:47:58Z</time>
      </trkpt>
      <trkpt lat="45.86336" lon="5.95097">
        <ele>361.1124268</ele>
        <time>2012-10-28T10:48:02Z</time>
      </trkpt>
      <trkpt lat="45.86342" lon="5.95082">
        <ele>359.6704102</ele>
        <time>2012-10-28T10:48:06Z</time>
      </trkpt>
      <trkpt lat="45.86349" lon="5.95067">
        <ele>359.1896973</ele>
        <time>2012-10-28T10:48:10Z</time>
      </trkpt>
      <trkpt lat="45.86362" lon="5.95044">
        <ele>359.1896973</ele>
        <time>2012-10-28T10:48:17Z</time>
      </trkpt>
      <trkpt lat="45.86368" lon="5.95027">
        <ele>357.7478027</ele>
        <time>2012-10-28T10:48:21Z</time>
      </trkpt>
      <trkpt lat="45.86369" lon="5.95023">
        <ele>357.2670898</ele>
        <time>2012-10-28T10:48:22Z</time>
      </trkpt>
      <trkpt lat="45.8638" lon="5.95003">
        <ele>357.2670898</ele>
        <time>2012-10-28T10:48:28Z</time>
      </trkpt>
      <trkpt lat="45.86389" lon="5.94987">
        <ele>357.7478027</ele>
        <time>2012-10-28T10:48:33Z</time>
      </trkpt>
      <trkpt lat="45.86396" lon="5.94972">
        <ele>358.7089844</ele>
        <time>2012-10-28T10:48:37Z</time>
      </trkpt>
      <trkpt lat="45.86398" lon="5.94964">
        <ele>358.7089844</ele>
        <time>2012-10-28T10:48:39Z</time>
      </trkpt>
      <trkpt lat="45.86397" lon="5.94949">
        <ele>359.1896973</ele>
        <time>2012-10-28T10:48:43Z</time>
      </trkpt>
      <trkpt lat="45.86388" lon="5.94926">
        <ele>361.1124268</ele>
        <time>2012-10-28T10:48:50Z</time>
      </trkpt>
      <trkpt lat="45.8638" lon="5.94907">
        <ele>361.1124268</ele>
        <time>2012-10-28T10:48:56Z</time>
      </trkpt>
      <trkpt lat="45.86373" lon="5.94892">
        <ele>361.5931396</ele>
        <time>2012-10-28T10:49:00Z</time>
      </trkpt>
      <trkpt lat="45.86378" lon="5.94871">
        <ele>361.1124268</ele>
        <time>2012-10-28T10:49:05Z</time>
      </trkpt>
      <trkpt lat="45.86389" lon="5.94849">
        <ele>360.6317139</ele>
        <time>2012-10-28T10:49:11Z</time>
      </trkpt>
      <trkpt lat="45.86397" lon="5.94836">
        <ele>360.151123</ele>
        <time>2012-10-28T10:49:15Z</time>
      </trkpt>
      <trkpt lat="45.86403" lon="5.9482">
        <ele>363.0350342</ele>
        <time>2012-10-28T10:49:19Z</time>
      </trkpt>
      <trkpt lat="45.86414" lon="5.94807">
        <ele>365.4383545</ele>
        <time>2012-10-28T10:49:24Z</time>
      </trkpt>
      <trkpt lat="45.86425" lon="5.94796">
        <ele>366.880249</ele>
        <time>2012-10-28T10:49:29Z</time>
      </trkpt>
      <trkpt lat="45.86438" lon="5.94788">
        <ele>365.9189453</ele>
        <time>2012-10-28T10:49:34Z</time>
      </trkpt>
      <trkpt lat="45.86451" lon="5.94775">
        <ele>365.4383545</ele>
        <time>2012-10-28T10:49:39Z</time>
      </trkpt>
      <trkpt lat="45.86465" lon="5.94766">
        <ele>363.0350342</ele>
        <time>2012-10-28T10:49:44Z</time>
      </trkpt>
      <trkpt lat="45.86481" lon="5.94754">
        <ele>361.5931396</ele>
        <time>2012-10-28T10:49:50Z</time>
      </trkpt>
      <trkpt lat="45.86495" lon="5.94743">
        <ele>360.151123</ele>
        <time>2012-10-28T10:49:55Z</time>
      </trkpt>
      <trkpt lat="45.86508" lon="5.94732">
        <ele>362.5543213</ele>
        <time>2012-10-28T10:50:00Z</time>
      </trkpt>
      <trkpt lat="45.86521" lon="5.94722">
        <ele>364.9576416</ele>
        <time>2012-10-28T10:50:05Z</time>
      </trkpt>
      <trkpt lat="45.86536" lon="5.9471">
        <ele>366.3995361</ele>
        <time>2012-10-28T10:50:11Z</time>
      </trkpt>
      <trkpt lat="45.86552" lon="5.94698">
        <ele>366.880249</ele>
        <time>2012-10-28T10:50:17Z</time>
      </trkpt>
      <trkpt lat="45.86566" lon="5.94689">
        <ele>366.3995361</ele>
        <time>2012-10-28T10:50:23Z</time>
      </trkpt>
      <trkpt lat="45.86583" lon="5.94682">
        <ele>365.9189453</ele>
        <time>2012-10-28T10:50:29Z</time>
      </trkpt>
      <trkpt lat="45.86592" lon="5.94677">
        <ele>366.3995361</ele>
        <time>2012-10-28T10:50:33Z</time>
      </trkpt>
      <trkpt lat="45.86606" lon="5.94672">
        <ele>366.880249</ele>
        <time>2012-10-28T10:50:38Z</time>
      </trkpt>
      <trkpt lat="45.86625" lon="5.9468">
        <ele>365.9189453</ele>
        <time>2012-10-28T10:50:43Z</time>
      </trkpt>
      <trkpt lat="45.86639" lon="5.94681">
        <ele>366.3995361</ele>
        <time>2012-10-28T10:50:48Z</time>
      </trkpt>
      <trkpt lat="45.86646" lon="5.94669">
        <ele>364.9576416</ele>
        <time>2012-10-28T10:50:52Z</time>
      </trkpt>
      <trkpt lat="45.86649" lon="5.94652">
        <ele>362.0737305</ele>
        <time>2012-10-28T10:50:56Z</time>
      </trkpt>
      <trkpt lat="45.8665" lon="5.94639">
        <ele>360.151123</ele>
        <time>2012-10-28T10:51:01Z</time>
      </trkpt>
      <trkpt lat="45.86647" lon="5.94627">
        <ele>358.7089844</ele>
        <time>2012-10-28T10:51:05Z</time>
      </trkpt>
      <trkpt lat="45.8664" lon="5.94599">
        <ele>357.7478027</ele>
        <time>2012-10-28T10:51:12Z</time>
      </trkpt>
      <trkpt lat="45.86635" lon="5.94577">
        <ele>355.8251953</ele>
        <time>2012-10-28T10:51:18Z</time>
      </trkpt>
      <trkpt lat="45.86633" lon="5.94558">
        <ele>354.8637695</ele>
        <time>2012-10-28T10:51:23Z</time>
      </trkpt>
      <trkpt lat="45.86633" lon="5.94537">
        <ele>353.421875</ele>
        <time>2012-10-28T10:51:28Z</time>
      </trkpt>
      <trkpt lat="45.86633" lon="5.94515">
        <ele>352.9411621</ele>
        <time>2012-10-28T10:51:33Z</time>
      </trkpt>
      <trkpt lat="45.86635" lon="5.94498">
        <ele>351.4991455</ele>
        <time>2012-10-28T10:51:37Z</time>
      </trkpt>
      <trkpt lat="45.86639" lon="5.94482">
        <ele>351.0184326</ele>
        <time>2012-10-28T10:51:41Z</time>
      </trkpt>
      <trkpt lat="45.86642" lon="5.94464">
        <ele>350.5378418</ele>
        <time>2012-10-28T10:51:45Z</time>
      </trkpt>
      <trkpt lat="45.86647" lon="5.94444">
        <ele>350.5378418</ele>
        <time>2012-10-28T10:51:50Z</time>
      </trkpt>
      <trkpt lat="45.86652" lon="5.94425">
        <ele>352.4605713</ele>
        <time>2012-10-28T10:51:55Z</time>
      </trkpt>
      <trkpt lat="45.86655" lon="5.9441">
        <ele>354.8637695</ele>
        <time>2012-10-28T10:51:59Z</time>
      </trkpt>
      <trkpt lat="45.86668" lon="5.94401">
        <ele>354.8637695</ele>
        <time>2012-10-28T10:52:04Z</time>
      </trkpt>
      <trkpt lat="45.86671" lon="5.94399">
        <ele>354.8637695</ele>
        <time>2012-10-28T10:52:05Z</time>
      </trkpt>
      <trkpt lat="45.86678" lon="5.94395">
        <ele>351.4991455</ele>
        <time>2012-10-28T10:52:10Z</time>
      </trkpt>
      <trkpt lat="45.86683" lon="5.94399">
        <ele>348.6152344</ele>
        <time>2012-10-28T10:52:14Z</time>
      </trkpt>
      <trkpt lat="45.86692" lon="5.94395">
        <ele>348.1346436</ele>
        <time>2012-10-28T10:52:20Z</time>
      </trkpt>
      <trkpt lat="45.86698" lon="5.94395">
        <ele>349.0958252</ele>
        <time>2012-10-28T10:52:24Z</time>
      </trkpt>
      <trkpt lat="45.86708" lon="5.94385">
        <ele>348.6152344</ele>
        <time>2012-10-28T10:52:28Z</time>
      </trkpt>
      <trkpt lat="45.86712" lon="5.94378">
        <ele>346.692627</ele>
        <time>2012-10-28T10:52:30Z</time>
      </trkpt>
      <trkpt lat="45.86718" lon="5.94366">
        <ele>344.7700195</ele>
        <time>2012-10-28T10:52:33Z</time>
      </trkpt>
      <trkpt lat="45.86724" lon="5.94343">
        <ele>343.8085938</ele>
        <time>2012-10-28T10:52:38Z</time>
      </trkpt>
      <trkpt lat="45.86726" lon="5.94323">
        <ele>342.3666992</ele>
        <time>2012-10-28T10:52:43Z</time>
      </trkpt>
      <trkpt lat="45.86729" lon="5.94299">
        <ele>340.9246826</ele>
        <time>2012-10-28T10:52:49Z</time>
      </trkpt>
      <trkpt lat="45.86733" lon="5.94282">
        <ele>340.9246826</ele>
        <time>2012-10-28T10:52:53Z</time>
      </trkpt>
      <trkpt lat="45.86734" lon="5.94261">
        <ele>339.482666</ele>
        <time>2012-10-28T10:52:58Z</time>
      </trkpt>
      <trkpt lat="45.86735" lon="5.94254">
        <ele>338.0407715</ele>
        <time>2012-10-28T10:53:00Z</time>
      </trkpt>
      <trkpt lat="45.8674" lon="5.94241">
        <ele>337.5600586</ele>
        <time>2012-10-28T10:53:04Z</time>
      </trkpt>
      <trkpt lat="45.86743" lon="5.9422">
        <ele>339.0020752</ele>
        <time>2012-10-28T10:53:09Z</time>
      </trkpt>
      <trkpt lat="45.86748" lon="5.94202">
        <ele>339.0020752</ele>
        <time>2012-10-28T10:53:14Z</time>
      </trkpt>
      <trkpt lat="45.86748" lon="5.94184">
        <ele>339.9633789</ele>
        <time>2012-10-28T10:53:18Z</time>
      </trkpt>
      <trkpt lat="45.86751" lon="5.9417">
        <ele>341.8859863</ele>
        <time>2012-10-28T10:53:22Z</time>
      </trkpt>
      <trkpt lat="45.86755" lon="5.94152">
        <ele>343.8085938</ele>
        <time>2012-10-28T10:53:27Z</time>
      </trkpt>
      <trkpt lat="45.86758" lon="5.94138">
        <ele>344.7700195</ele>
        <time>2012-10-28T10:53:31Z</time>
      </trkpt>
      <trkpt lat="45.86758" lon="5.94134">
        <ele>345.2506104</ele>
        <time>2012-10-28T10:53:32Z</time>
      </trkpt>
      <trkpt lat="45.86763" lon="5.94114">
        <ele>347.1732178</ele>
        <time>2012-10-28T10:53:38Z</time>
      </trkpt>
      <trkpt lat="45.86767" lon="5.94096">
        <ele>347.6539307</ele>
        <time>2012-10-28T10:53:43Z</time>
      </trkpt>
      <trkpt lat="45.8677" lon="5.94082">
        <ele>348.6152344</ele>
        <time>2012-10-28T10:53:47Z</time>
      </trkpt>
      <trkpt lat="45.86773" lon="5.94069">
        <ele>349.0958252</ele>
        <time>2012-10-28T10:53:51Z</time>
      </trkpt>
      <trkpt lat="45.86778" lon="5.94053">
        <ele>349.0958252</ele>
        <time>2012-10-28T10:53:56Z</time>
      </trkpt>
      <trkpt lat="45.86781" lon="5.94036">
        <ele>349.0958252</ele>
        <time>2012-10-28T10:54:01Z</time>
      </trkpt>
      <trkpt lat="45.86782" lon="5.94012">
        <ele>349.5765381</ele>
        <time>2012-10-28T10:54:07Z</time>
      </trkpt>
      <trkpt lat="45.86782" lon="5.93991">
        <ele>349.5765381</ele>
        <time>2012-10-28T10:54:12Z</time>
      </trkpt>
      <trkpt lat="45.86782" lon="5.93972">
        <ele>350.5378418</ele>
        <time>2012-10-28T10:54:16Z</time>
      </trkpt>
      <trkpt lat="45.86783" lon="5.93947">
        <ele>351.0184326</ele>
        <time>2012-10-28T10:54:22Z</time>
      </trkpt>
      <trkpt lat="45.86785" lon="5.93922">
        <ele>351.9798584</ele>
        <time>2012-10-28T10:54:28Z</time>
      </trkpt>
      <trkpt lat="45.86786" lon="5.93905">
        <ele>351.9798584</ele>
        <time>2012-10-28T10:54:32Z</time>
      </trkpt>
      <trkpt lat="45.86786" lon="5.93886">
        <ele>352.4605713</ele>
        <time>2012-10-28T10:54:37Z</time>
      </trkpt>
      <trkpt lat="45.86785" lon="5.93877">
        <ele>351.4991455</ele>
        <time>2012-10-28T10:54:40Z</time>
      </trkpt>
      <trkpt lat="45.86784" lon="5.93886">
        <ele>350.057251</ele>
        <time>2012-10-28T10:54:45Z</time>
      </trkpt>
      <trkpt lat="45.86778" lon="5.93884">
        <ele>349.5765381</ele>
        <time>2012-10-28T10:54:49Z</time>
      </trkpt>
      <trkpt lat="45.86774" lon="5.9388">
        <ele>348.1346436</ele>
        <time>2012-10-28T10:54:54Z</time>
      </trkpt>
      <trkpt lat="45.86773" lon="5.9388">
        <ele>348.1346436</ele>
        <time>2012-10-28T10:54:55Z</time>
      </trkpt>
      <trkpt lat="45.86772" lon="5.93869">
        <ele>347.1732178</ele>
        <time>2012-10-28T10:55:01Z</time>
      </trkpt>
      <trkpt lat="45.86773" lon="5.93866">
        <ele>348.6152344</ele>
        <time>2012-10-28T10:55:08Z</time>
      </trkpt>
      <trkpt lat="45.86772" lon="5.93863">
        <ele>348.6152344</ele>
        <time>2012-10-28T10:55:17Z</time>
      </trkpt>
      <trkpt lat="45.86776" lon="5.9385">
        <ele>349.5765381</ele>
        <time>2012-10-28T10:55:22Z</time>
      </trkpt>
      <trkpt lat="45.86777" lon="5.93844">
        <ele>350.057251</ele>
        <time>2012-10-28T10:55:24Z</time>
      </trkpt>
      <trkpt lat="45.86783" lon="5.9382">
        <ele>349.5765381</ele>
        <time>2012-10-28T10:55:30Z</time>
      </trkpt>
      <trkpt lat="45.86788" lon="5.93806">
        <ele>351.9798584</ele>
        <time>2012-10-28T10:55:34Z</time>
      </trkpt>
      <trkpt lat="45.86791" lon="5.93782">
        <ele>353.421875</ele>
        <time>2012-10-28T10:55:40Z</time>
      </trkpt>
      <trkpt lat="45.86791" lon="5.93763">
        <ele>354.3831787</ele>
        <time>2012-10-28T10:55:44Z</time>
      </trkpt>
      <trkpt lat="45.86793" lon="5.93746">
        <ele>355.8251953</ele>
        <time>2012-10-28T10:55:48Z</time>
      </trkpt>
      <trkpt lat="45.86794" lon="5.93724">
        <ele>355.3444824</ele>
        <time>2012-10-28T10:55:53Z</time>
      </trkpt>
      <trkpt lat="45.86794" lon="5.93706">
        <ele>355.8251953</ele>
        <time>2012-10-28T10:55:57Z</time>
      </trkpt>
      <trkpt lat="45.86792" lon="5.93682">
        <ele>355.8251953</ele>
        <time>2012-10-28T10:56:02Z</time>
      </trkpt>
      <trkpt lat="45.86794" lon="5.93655">
        <ele>355.8251953</ele>
        <time>2012-10-28T10:56:08Z</time>
      </trkpt>
      <trkpt lat="45.86795" lon="5.93636">
        <ele>357.2670898</ele>
        <time>2012-10-28T10:56:13Z</time>
      </trkpt>
      <trkpt lat="45.86796" lon="5.93615">
        <ele>359.1896973</ele>
        <time>2012-10-28T10:56:18Z</time>
      </trkpt>
      <trkpt lat="45.86799" lon="5.93593">
        <ele>357.2670898</ele>
        <time>2012-10-28T10:56:23Z</time>
      </trkpt>
      <trkpt lat="45.86802" lon="5.93576">
        <ele>355.3444824</ele>
        <time>2012-10-28T10:56:27Z</time>
      </trkpt>
      <trkpt lat="45.86802" lon="5.93556">
        <ele>354.3831787</ele>
        <time>2012-10-28T10:56:31Z</time>
      </trkpt>
      <trkpt lat="45.86802" lon="5.93534">
        <ele>354.8637695</ele>
        <time>2012-10-28T10:56:36Z</time>
      </trkpt>
      <trkpt lat="45.86806" lon="5.93516">
        <ele>355.8251953</ele>
        <time>2012-10-28T10:56:41Z</time>
      </trkpt>
      <trkpt lat="45.8681" lon="5.93493">
        <ele>359.1896973</ele>
        <time>2012-10-28T10:56:47Z</time>
      </trkpt>
      <trkpt lat="45.86815" lon="5.9347">
        <ele>360.6317139</ele>
        <time>2012-10-28T10:56:53Z</time>
      </trkpt>
      <trkpt lat="45.8682" lon="5.9345">
        <ele>360.151123</ele>
        <time>2012-10-28T10:56:58Z</time>
      </trkpt>
      <trkpt lat="45.86824" lon="5.93434">
        <ele>362.5543213</ele>
        <time>2012-10-28T10:57:02Z</time>
      </trkpt>
      <trkpt lat="45.86827" lon="5.9342">
        <ele>364.9576416</ele>
        <time>2012-10-28T10:57:06Z</time>
      </trkpt>
      <trkpt lat="45.86835" lon="5.93401">
        <ele>363.5157471</ele>
        <time>2012-10-28T10:57:11Z</time>
      </trkpt>
      <trkpt lat="45.86845" lon="5.93385">
        <ele>363.5157471</ele>
        <time>2012-10-28T10:57:16Z</time>
      </trkpt>
      <trkpt lat="45.86854" lon="5.93366">
        <ele>362.0737305</ele>
        <time>2012-10-28T10:57:22Z</time>
      </trkpt>
      <trkpt lat="45.86857" lon="5.93361">
        <ele>362.0737305</ele>
        <time>2012-10-28T10:57:24Z</time>
      </trkpt>
      <trkpt lat="45.86865" lon="5.93336">
        <ele>363.5157471</ele>
        <time>2012-10-28T10:57:31Z</time>
      </trkpt>
      <trkpt lat="45.86869" lon="5.93318">
        <ele>364.4769287</ele>
        <time>2012-10-28T10:57:36Z</time>
      </trkpt>
      <trkpt lat="45.86869" lon="5.93301">
        <ele>365.4383545</ele>
        <time>2012-10-28T10:57:41Z</time>
      </trkpt>
      <trkpt lat="45.8687" lon="5.93278">
        <ele>367.3609619</ele>
        <time>2012-10-28T10:57:47Z</time>
      </trkpt>
      <trkpt lat="45.86869" lon="5.93253">
        <ele>369.7642822</ele>
        <time>2012-10-28T10:57:54Z</time>
      </trkpt>
      <trkpt lat="45.86867" lon="5.93236">
        <ele>372.1674805</ele>
        <time>2012-10-28T10:57:59Z</time>
      </trkpt>
      <trkpt lat="45.86867" lon="5.9322">
        <ele>374.0900879</ele>
        <time>2012-10-28T10:58:04Z</time>
      </trkpt>
      <trkpt lat="45.86867" lon="5.93207">
        <ele>375.5321045</ele>
        <time>2012-10-28T10:58:08Z</time>
      </trkpt>
      <trkpt lat="45.86868" lon="5.93192">
        <ele>376.9742432</ele>
        <time>2012-10-28T10:58:13Z</time>
      </trkpt>
      <trkpt lat="45.86868" lon="5.93174">
        <ele>378.8968506</ele>
        <time>2012-10-28T10:58:19Z</time>
      </trkpt>
      <trkpt lat="45.86869" lon="5.93158">
        <ele>381.3000488</ele>
        <time>2012-10-28T10:58:25Z</time>
      </trkpt>
      <trkpt lat="45.86869" lon="5.93143">
        <ele>384.184082</ele>
        <time>2012-10-28T10:58:30Z</time>
      </trkpt>
      <trkpt lat="45.8687" lon="5.93129">
        <ele>385.6259766</ele>
        <time>2012-10-28T10:58:35Z</time>
      </trkpt>
      <trkpt lat="45.86868" lon="5.93121">
        <ele>387.0679932</ele>
        <time>2012-10-28T10:58:38Z</time>
      </trkpt>
      <trkpt lat="45.86867" lon="5.93109">
        <ele>388.0292969</ele>
        <time>2012-10-28T10:58:43Z</time>
      </trkpt>
      <trkpt lat="45.86866" lon="5.93096">
        <ele>389.4711914</ele>
        <time>2012-10-28T10:58:50Z</time>
      </trkpt>
      <trkpt lat="45.86865" lon="5.93091">
        <ele>390.4326172</ele>
        <time>2012-10-28T10:58:53Z</time>
      </trkpt>
      <trkpt lat="45.86865" lon="5.93084">
        <ele>391.8745117</ele>
        <time>2012-10-28T10:58:56Z</time>
      </trkpt>
      <trkpt lat="45.86864" lon="5.93078">
        <ele>393.7972412</ele>
        <time>2012-10-28T10:59:00Z</time>
      </trkpt>
      <trkpt lat="45.86865" lon="5.93072">
        <ele>394.2779541</ele>
        <time>2012-10-28T10:59:03Z</time>
      </trkpt>
      <trkpt lat="45.86864" lon="5.93054">
        <ele>396.6811523</ele>
        <time>2012-10-28T10:59:10Z</time>
      </trkpt>
      <trkpt lat="45.86859" lon="5.93048">
        <ele>398.6037598</ele>
        <time>2012-10-28T10:59:17Z</time>
      </trkpt>
      <trkpt lat="45.86855" lon="5.93045">
        <ele>398.1231689</ele>
        <time>2012-10-28T10:59:20Z</time>
      </trkpt>
      <trkpt lat="45.86857" lon="5.9304">
        <ele>397.6424561</ele>
        <time>2012-10-28T10:59:24Z</time>
      </trkpt>
      <trkpt lat="45.86864" lon="5.93035">
        <ele>395.2391357</ele>
        <time>2012-10-28T10:59:29Z</time>
      </trkpt>
      <trkpt lat="45.86865" lon="5.93034">
        <ele>394.7585449</ele>
        <time>2012-10-28T10:59:30Z</time>
      </trkpt>
      <trkpt lat="45.86867" lon="5.93031">
        <ele>393.3165283</ele>
        <time>2012-10-28T10:59:32Z</time>
      </trkpt>
      <trkpt lat="45.86872" lon="5.93021">
        <ele>389.4711914</ele>
        <time>2012-10-28T10:59:39Z</time>
      </trkpt>
      <trkpt lat="45.86877" lon="5.93006">
        <ele>388.9906006</ele>
        <time>2012-10-28T10:59:47Z</time>
      </trkpt>
      <trkpt lat="45.86877" lon="5.93003">
        <ele>389.4711914</ele>
        <time>2012-10-28T10:59:49Z</time>
      </trkpt>
      <trkpt lat="45.8688" lon="5.92996">
        <ele>392.3553467</ele>
        <time>2012-10-28T10:59:56Z</time>
      </trkpt>
      <trkpt lat="45.86883" lon="5.92984">
        <ele>396.6811523</ele>
        <time>2012-10-28T11:00:03Z</time>
      </trkpt>
      <trkpt lat="45.86885" lon="5.92982">
        <ele>398.1231689</ele>
        <time>2012-10-28T11:00:05Z</time>
      </trkpt>
      <trkpt lat="45.86886" lon="5.92975">
        <ele>399.5650635</ele>
        <time>2012-10-28T11:00:10Z</time>
      </trkpt>
      <trkpt lat="45.86889" lon="5.92971">
        <ele>400.0458984</ele>
        <time>2012-10-28T11:00:14Z</time>
      </trkpt>
      <trkpt lat="45.86892" lon="5.92967">
        <ele>403.4104004</ele>
        <time>2012-10-28T11:00:20Z</time>
      </trkpt>
      <trkpt lat="45.86893" lon="5.92966">
        <ele>401.9685059</ele>
        <time>2012-10-28T11:00:21Z</time>
      </trkpt>
      <trkpt lat="45.86893" lon="5.92962">
        <ele>401.487793</ele>
        <time>2012-10-28T11:00:24Z</time>
      </trkpt>
      <trkpt lat="45.86895" lon="5.92955">
        <ele>402.4490967</ele>
        <time>2012-10-28T11:00:29Z</time>
      </trkpt>
      <trkpt lat="45.86895" lon="5.92953">
        <ele>402.4490967</ele>
        <time>2012-10-28T11:00:31Z</time>
      </trkpt>
      <trkpt lat="45.86901" lon="5.9295">
        <ele>403.8911133</ele>
        <time>2012-10-28T11:00:37Z</time>
      </trkpt>
      <trkpt lat="45.86907" lon="5.92946">
        <ele>405.8137207</ele>
        <time>2012-10-28T11:00:42Z</time>
      </trkpt>
      <trkpt lat="45.86915" lon="5.92943">
        <ele>407.7363281</ele>
        <time>2012-10-28T11:00:49Z</time>
      </trkpt>
      <trkpt lat="45.86922" lon="5.92942">
        <ele>411.1009521</ele>
        <time>2012-10-28T11:00:54Z</time>
      </trkpt>
      <trkpt lat="45.86924" lon="5.92942">
        <ele>412.0622559</ele>
        <time>2012-10-28T11:00:55Z</time>
      </trkpt>
      <trkpt lat="45.86931" lon="5.92939">
        <ele>415.4268799</ele>
        <time>2012-10-28T11:00:59Z</time>
      </trkpt>
      <trkpt lat="45.86935" lon="5.92935">
        <ele>417.3496094</ele>
        <time>2012-10-28T11:01:02Z</time>
      </trkpt>
      <trkpt lat="45.86938" lon="5.92931">
        <ele>418.310791</ele>
        <time>2012-10-28T11:01:04Z</time>
      </trkpt>
      <trkpt lat="45.86945" lon="5.92922">
        <ele>421.675415</ele>
        <time>2012-10-28T11:01:09Z</time>
      </trkpt>
      <trkpt lat="45.86945" lon="5.92918">
        <ele>424.0787354</ele>
        <time>2012-10-28T11:01:13Z</time>
      </trkpt>
      <trkpt lat="45.86936" lon="5.92908">
        <ele>426.0013428</ele>
        <time>2012-10-28T11:01:22Z</time>
      </trkpt>
      <trkpt lat="45.86936" lon="5.92905">
        <ele>425.520752</ele>
        <time>2012-10-28T11:01:23Z</time>
      </trkpt>
      <trkpt lat="45.8694" lon="5.92898">
        <ele>426.9627686</ele>
        <time>2012-10-28T11:01:28Z</time>
      </trkpt>
      <trkpt lat="45.86945" lon="5.92892">
        <ele>427.9239502</ele>
        <time>2012-10-28T11:01:34Z</time>
      </trkpt>
      <trkpt lat="45.86947" lon="5.92884">
        <ele>425.0401611</ele>
        <time>2012-10-28T11:01:38Z</time>
      </trkpt>
      <trkpt lat="45.8695" lon="5.92877">
        <ele>422.1560059</ele>
        <time>2012-10-28T11:01:43Z</time>
      </trkpt>
      <trkpt lat="45.86953" lon="5.9287">
        <ele>425.0401611</ele>
        <time>2012-10-28T11:01:49Z</time>
      </trkpt>
      <trkpt lat="45.86954" lon="5.9287">
        <ele>426.0013428</ele>
        <time>2012-10-28T11:01:50Z</time>
      </trkpt>
      <trkpt lat="45.86955" lon="5.92866">
        <ele>429.3659668</ele>
        <time>2012-10-28T11:01:53Z</time>
      </trkpt>
      <trkpt lat="45.86952" lon="5.92857">
        <ele>430.3272705</ele>
        <time>2012-10-28T11:02:00Z</time>
      </trkpt>
      <trkpt lat="45.86952" lon="5.92853">
        <ele>432.25</ele>
        <time>2012-10-28T11:02:03Z</time>
      </trkpt>
      <trkpt lat="45.86952" lon="5.92851">
        <ele>434.1726074</ele>
        <time>2012-10-28T11:02:05Z</time>
      </trkpt>
      <trkpt lat="45.86949" lon="5.92846">
        <ele>435.614502</ele>
        <time>2012-10-28T11:02:10Z</time>
      </trkpt>
      <trkpt lat="45.86949" lon="5.92845">
        <ele>436.0952148</ele>
        <time>2012-10-28T11:02:11Z</time>
      </trkpt>
      <trkpt lat="45.86942" lon="5.92837">
        <ele>437.0565186</ele>
        <time>2012-10-28T11:02:18Z</time>
      </trkpt>
      <trkpt lat="45.86942" lon="5.92834">
        <ele>437.5371094</ele>
        <time>2012-10-28T11:02:22Z</time>
      </trkpt>
      <trkpt lat="45.86936" lon="5.92825">
        <ele>438.4985352</ele>
        <time>2012-10-28T11:02:29Z</time>
      </trkpt>
      <trkpt lat="45.86935" lon="5.92825">
        <ele>438.979126</ele>
        <time>2012-10-28T11:02:30Z</time>
      </trkpt>
      <trkpt lat="45.86932" lon="5.92816">
        <ele>437.5371094</ele>
        <time>2012-10-28T11:02:36Z</time>
      </trkpt>
      <trkpt lat="45.8693" lon="5.92811">
        <ele>438.0178223</ele>
        <time>2012-10-28T11:02:39Z</time>
      </trkpt>
      <trkpt lat="45.8693" lon="5.92803">
        <ele>441.3824463</ele>
        <time>2012-10-28T11:02:44Z</time>
      </trkpt>
      <trkpt lat="45.86928" lon="5.92792">
        <ele>443.7857666</ele>
        <time>2012-10-28T11:02:49Z</time>
      </trkpt>
      <trkpt lat="45.86927" lon="5.92786">
        <ele>447.1502686</ele>
        <time>2012-10-28T11:02:53Z</time>
      </trkpt>
      <trkpt lat="45.86926" lon="5.9278">
        <ele>450.0344238</ele>
        <time>2012-10-28T11:02:56Z</time>
      </trkpt>
      <trkpt lat="45.86923" lon="5.92771">
        <ele>453.3989258</ele>
        <time>2012-10-28T11:03:00Z</time>
      </trkpt>
      <trkpt lat="45.86921" lon="5.92767">
        <ele>455.8022461</ele>
        <time>2012-10-28T11:03:03Z</time>
      </trkpt>
      <trkpt lat="45.8692" lon="5.92764">
        <ele>457.2442627</ele>
        <time>2012-10-28T11:03:05Z</time>
      </trkpt>
      <trkpt lat="45.86918" lon="5.92756">
        <ele>456.282959</ele>
        <time>2012-10-28T11:03:09Z</time>
      </trkpt>
      <trkpt lat="45.86919" lon="5.92751">
        <ele>452.9182129</ele>
        <time>2012-10-28T11:03:13Z</time>
      </trkpt>
      <trkpt lat="45.86922" lon="5.92746">
        <ele>450.9956055</ele>
        <time>2012-10-28T11:03:18Z</time>
      </trkpt>
      <trkpt lat="45.86926" lon="5.92737">
        <ele>450.0344238</ele>
        <time>2012-10-28T11:03:24Z</time>
      </trkpt>
      <trkpt lat="45.86927" lon="5.92729">
        <ele>450.0344238</ele>
        <time>2012-10-28T11:03:28Z</time>
      </trkpt>
      <trkpt lat="45.86927" lon="5.92717">
        <ele>451.4763184</ele>
        <time>2012-10-28T11:03:34Z</time>
      </trkpt>
      <trkpt lat="45.86927" lon="5.92716">
        <ele>451.4763184</ele>
        <time>2012-10-28T11:03:35Z</time>
      </trkpt>
      <trkpt lat="45.86929" lon="5.92708">
        <ele>451.4763184</ele>
        <time>2012-10-28T11:03:41Z</time>
      </trkpt>
      <trkpt lat="45.86927" lon="5.92694">
        <ele>453.8796387</ele>
        <time>2012-10-28T11:03:47Z</time>
      </trkpt>
      <trkpt lat="45.86928" lon="5.92686">
        <ele>455.8022461</ele>
        <time>2012-10-28T11:03:52Z</time>
      </trkpt>
      <trkpt lat="45.86929" lon="5.92674">
        <ele>459.1668701</ele>
        <time>2012-10-28T11:04:00Z</time>
      </trkpt>
      <trkpt lat="45.86931" lon="5.92668">
        <ele>460.6087646</ele>
        <time>2012-10-28T11:04:06Z</time>
      </trkpt>
      <trkpt lat="45.8693" lon="5.92663">
        <ele>462.5313721</ele>
        <time>2012-10-28T11:04:09Z</time>
      </trkpt>
      <trkpt lat="45.86932" lon="5.92655">
        <ele>463.4927979</ele>
        <time>2012-10-28T11:04:16Z</time>
      </trkpt>
      <trkpt lat="45.86934" lon="5.9265">
        <ele>464.4541016</ele>
        <time>2012-10-28T11:04:21Z</time>
      </trkpt>
      <trkpt lat="45.86938" lon="5.92644">
        <ele>465.4155273</ele>
        <time>2012-10-28T11:04:27Z</time>
      </trkpt>
      <trkpt lat="45.86939" lon="5.92641">
        <ele>465.4155273</ele>
        <time>2012-10-28T11:04:30Z</time>
      </trkpt>
      <trkpt lat="45.86942" lon="5.92625">
        <ele>467.3381348</ele>
        <time>2012-10-28T11:04:38Z</time>
      </trkpt>
      <trkpt lat="45.86941" lon="5.92613">
        <ele>468.7800293</ele>
        <time>2012-10-28T11:04:43Z</time>
      </trkpt>
      <trkpt lat="45.86941" lon="5.92601">
        <ele>471.1833496</ele>
        <time>2012-10-28T11:04:48Z</time>
      </trkpt>
      <trkpt lat="45.86939" lon="5.92592">
        <ele>471.6639404</ele>
        <time>2012-10-28T11:04:51Z</time>
      </trkpt>
      <trkpt lat="45.86935" lon="5.92578">
        <ele>473.5866699</ele>
        <time>2012-10-28T11:04:55Z</time>
      </trkpt>
      <trkpt lat="45.86928" lon="5.92556">
        <ele>476.4705811</ele>
        <time>2012-10-28T11:05:01Z</time>
      </trkpt>
      <trkpt lat="45.86921" lon="5.92541">
        <ele>478.8739014</ele>
        <time>2012-10-28T11:05:06Z</time>
      </trkpt>
      <trkpt lat="45.86914" lon="5.92523">
        <ele>482.2385254</ele>
        <time>2012-10-28T11:05:12Z</time>
      </trkpt>
      <trkpt lat="45.86908" lon="5.92509">
        <ele>484.6418457</ele>
        <time>2012-10-28T11:05:17Z</time>
      </trkpt>
      <trkpt lat="45.86901" lon="5.92497">
        <ele>485.6030273</ele>
        <time>2012-10-28T11:05:22Z</time>
      </trkpt>
      <trkpt lat="45.86899" lon="5.92485">
        <ele>485.6030273</ele>
        <time>2012-10-28T11:05:26Z</time>
      </trkpt>
      <trkpt lat="45.86898" lon="5.92479">
        <ele>485.6030273</ele>
        <time>2012-10-28T11:05:28Z</time>
      </trkpt>
      <trkpt lat="45.86896" lon="5.92467">
        <ele>486.0837402</ele>
        <time>2012-10-28T11:05:32Z</time>
      </trkpt>
      <trkpt lat="45.86894" lon="5.92449">
        <ele>488.0064697</ele>
        <time>2012-10-28T11:05:38Z</time>
      </trkpt>
      <trkpt lat="45.86893" lon="5.92435">
        <ele>490.8903809</ele>
        <time>2012-10-28T11:05:44Z</time>
      </trkpt>
      <trkpt lat="45.8689" lon="5.92419">
        <ele>494.7355957</ele>
        <time>2012-10-28T11:05:51Z</time>
      </trkpt>
      <trkpt lat="45.86888" lon="5.92408">
        <ele>497.6196289</ele>
        <time>2012-10-28T11:05:56Z</time>
      </trkpt>
      <trkpt lat="45.86887" lon="5.92402">
        <ele>499.0615234</ele>
        <time>2012-10-28T11:05:59Z</time>
      </trkpt>
      <trkpt lat="45.86888" lon="5.92392">
        <ele>500.9841309</ele>
        <time>2012-10-28T11:06:05Z</time>
      </trkpt>
      <trkpt lat="45.86889" lon="5.92382">
        <ele>499.0615234</ele>
        <time>2012-10-28T11:06:11Z</time>
      </trkpt>
      <trkpt lat="45.86891" lon="5.92368">
        <ele>498.1003418</ele>
        <time>2012-10-28T11:06:16Z</time>
      </trkpt>
      <trkpt lat="45.86892" lon="5.9235">
        <ele>497.138916</ele>
        <time>2012-10-28T11:06:20Z</time>
      </trkpt>
      <trkpt lat="45.86895" lon="5.92329">
        <ele>496.6583252</ele>
        <time>2012-10-28T11:06:25Z</time>
      </trkpt>
      <trkpt lat="45.86899" lon="5.92306">
        <ele>499.0615234</ele>
        <time>2012-10-28T11:06:32Z</time>
      </trkpt>
      <trkpt lat="45.86902" lon="5.92294">
        <ele>501.4648438</ele>
        <time>2012-10-28T11:06:36Z</time>
      </trkpt>
      <trkpt lat="45.86904" lon="5.92283">
        <ele>502.9067383</ele>
        <time>2012-10-28T11:06:40Z</time>
      </trkpt>
      <trkpt lat="45.86909" lon="5.92264">
        <ele>505.7908936</ele>
        <time>2012-10-28T11:06:46Z</time>
      </trkpt>
      <trkpt lat="45.86912" lon="5.92249">
        <ele>506.2714844</ele>
        <time>2012-10-28T11:06:51Z</time>
      </trkpt>
      <trkpt lat="45.86915" lon="5.92243">
        <ele>507.2327881</ele>
        <time>2012-10-28T11:06:54Z</time>
      </trkpt>
      <trkpt lat="45.86917" lon="5.92232">
        <ele>509.1553955</ele>
        <time>2012-10-28T11:06:58Z</time>
      </trkpt>
      <trkpt lat="45.86918" lon="5.9222">
        <ele>506.2714844</ele>
        <time>2012-10-28T11:07:03Z</time>
      </trkpt>
      <trkpt lat="45.8692" lon="5.92205">
        <ele>504.8294678</ele>
        <time>2012-10-28T11:07:08Z</time>
      </trkpt>
      <trkpt lat="45.86921" lon="5.92192">
        <ele>502.9067383</ele>
        <time>2012-10-28T11:07:13Z</time>
      </trkpt>
      <trkpt lat="45.86922" lon="5.92184">
        <ele>502.4261475</ele>
        <time>2012-10-28T11:07:15Z</time>
      </trkpt>
      <trkpt lat="45.86929" lon="5.92162">
        <ele>502.4261475</ele>
        <time>2012-10-28T11:07:22Z</time>
      </trkpt>
      <trkpt lat="45.8693" lon="5.92155">
        <ele>501.9455566</ele>
        <time>2012-10-28T11:07:24Z</time>
      </trkpt>
      <trkpt lat="45.86933" lon="5.9214">
        <ele>501.9455566</ele>
        <time>2012-10-28T11:07:28Z</time>
      </trkpt>
      <trkpt lat="45.86933" lon="5.92134">
        <ele>501.4648438</ele>
        <time>2012-10-28T11:07:30Z</time>
      </trkpt>
      <trkpt lat="45.86937" lon="5.92116">
        <ele>502.4261475</ele>
        <time>2012-10-28T11:07:36Z</time>
      </trkpt>
      <trkpt lat="45.86938" lon="5.92103">
        <ele>503.8681641</ele>
        <time>2012-10-28T11:07:40Z</time>
      </trkpt>
      <trkpt lat="45.86939" lon="5.92089">
        <ele>505.3101807</ele>
        <time>2012-10-28T11:07:44Z</time>
      </trkpt>
      <trkpt lat="45.86941" lon="5.9207">
        <ele>506.2714844</ele>
        <time>2012-10-28T11:07:49Z</time>
      </trkpt>
      <trkpt lat="45.86943" lon="5.92066">
        <ele>506.2714844</ele>
        <time>2012-10-28T11:07:51Z</time>
      </trkpt>
      <trkpt lat="45.86948" lon="5.92063">
        <ele>508.1940918</ele>
        <time>2012-10-28T11:07:56Z</time>
      </trkpt>
      <trkpt lat="45.86952" lon="5.92058">
        <ele>508.6746826</ele>
        <time>2012-10-28T11:08:00Z</time>
      </trkpt>
      <trkpt lat="45.86958" lon="5.92053">
        <ele>511.0780029</ele>
        <time>2012-10-28T11:08:05Z</time>
      </trkpt>
      <trkpt lat="45.86969" lon="5.92054">
        <ele>513.0007324</ele>
        <time>2012-10-28T11:08:10Z</time>
      </trkpt>
      <trkpt lat="45.86976" lon="5.92056">
        <ele>514.442627</ele>
        <time>2012-10-28T11:08:13Z</time>
      </trkpt>
      <trkpt lat="45.86978" lon="5.92062">
        <ele>516.3652344</ele>
        <time>2012-10-28T11:08:18Z</time>
      </trkpt>
      <trkpt lat="45.86979" lon="5.92064">
        <ele>516.8459473</ele>
        <time>2012-10-28T11:08:19Z</time>
      </trkpt>
      <trkpt lat="45.86983" lon="5.92072">
        <ele>517.3266602</ele>
        <time>2012-10-28T11:08:24Z</time>
      </trkpt>
      <trkpt lat="45.86987" lon="5.92083">
        <ele>516.3652344</ele>
        <time>2012-10-28T11:08:29Z</time>
      </trkpt>
      <trkpt lat="45.86992" lon="5.92091">
        <ele>515.4040527</ele>
        <time>2012-10-28T11:08:33Z</time>
      </trkpt>
      <trkpt lat="45.86997" lon="5.92095">
        <ele>517.3266602</ele>
        <time>2012-10-28T11:08:37Z</time>
      </trkpt>
      <trkpt lat="45.86999" lon="5.92095">
        <ele>518.7685547</ele>
        <time>2012-10-28T11:08:38Z</time>
      </trkpt>
      <trkpt lat="45.87016" lon="5.92094">
        <ele>518.7685547</ele>
        <time>2012-10-28T11:08:45Z</time>
      </trkpt>
      <trkpt lat="45.87025" lon="5.92095">
        <ele>516.8459473</ele>
        <time>2012-10-28T11:08:50Z</time>
      </trkpt>
      <trkpt lat="45.87025" lon="5.92095">
        <ele>516.8459473</ele>
        <time>2012-10-28T11:08:52Z</time>
      </trkpt>
      <trkpt lat="45.87027" lon="5.92108">
        <ele>517.807251</ele>
        <time>2012-10-28T11:08:58Z</time>
      </trkpt>
      <trkpt lat="45.87033" lon="5.92124">
        <ele>519.2492676</ele>
        <time>2012-10-28T11:09:03Z</time>
      </trkpt>
      <trkpt lat="45.87043" lon="5.92137">
        <ele>520.6912842</ele>
        <time>2012-10-28T11:09:08Z</time>
      </trkpt>
      <trkpt lat="45.87052" lon="5.92148">
        <ele>521.1719971</ele>
        <time>2012-10-28T11:09:13Z</time>
      </trkpt>
      <trkpt lat="45.87061" lon="5.92161">
        <ele>521.6525879</ele>
        <time>2012-10-28T11:09:18Z</time>
      </trkpt>
      <trkpt lat="45.87068" lon="5.92173">
        <ele>521.6525879</ele>
        <time>2012-10-28T11:09:23Z</time>
      </trkpt>
      <trkpt lat="45.87076" lon="5.92186">
        <ele>521.1719971</ele>
        <time>2012-10-28T11:09:28Z</time>
      </trkpt>
      <trkpt lat="45.87084" lon="5.92201">
        <ele>524.0557861</ele>
        <time>2012-10-28T11:09:33Z</time>
      </trkpt>
      <trkpt lat="45.87091" lon="5.9222">
        <ele>525.0172119</ele>
        <time>2012-10-28T11:09:39Z</time>
      </trkpt>
      <trkpt lat="45.87097" lon="5.9224">
        <ele>526.4591064</ele>
        <time>2012-10-28T11:09:45Z</time>
      </trkpt>
      <trkpt lat="45.87102" lon="5.92253">
        <ele>526.9398193</ele>
        <time>2012-10-28T11:09:49Z</time>
      </trkpt>
      <trkpt lat="45.87112" lon="5.92251">
        <ele>528.3818359</ele>
        <time>2012-10-28T11:09:53Z</time>
      </trkpt>
      <trkpt lat="45.87122" lon="5.92235">
        <ele>529.8237305</ele>
        <time>2012-10-28T11:09:58Z</time>
      </trkpt>
      <trkpt lat="45.87126" lon="5.92228">
        <ele>530.3044434</ele>
        <time>2012-10-28T11:10:00Z</time>
      </trkpt>
      <trkpt lat="45.87136" lon="5.92201">
        <ele>532.2270508</ele>
        <time>2012-10-28T11:10:07Z</time>
      </trkpt>
      <trkpt lat="45.87145" lon="5.92181">
        <ele>532.7077637</ele>
        <time>2012-10-28T11:10:13Z</time>
      </trkpt>
      <trkpt lat="45.87153" lon="5.92165">
        <ele>533.6689453</ele>
        <time>2012-10-28T11:10:18Z</time>
      </trkpt>
      <trkpt lat="45.8716" lon="5.92149">
        <ele>533.6689453</ele>
        <time>2012-10-28T11:10:23Z</time>
      </trkpt>
      <trkpt lat="45.87165" lon="5.92132">
        <ele>534.6303711</ele>
        <time>2012-10-28T11:10:28Z</time>
      </trkpt>
      <trkpt lat="45.87171" lon="5.92115">
        <ele>533.6689453</ele>
        <time>2012-10-28T11:10:33Z</time>
      </trkpt>
      <trkpt lat="45.87174" lon="5.921">
        <ele>534.1496582</ele>
        <time>2012-10-28T11:10:37Z</time>
      </trkpt>
      <trkpt lat="45.87178" lon="5.92086">
        <ele>535.1109619</ele>
        <time>2012-10-28T11:10:41Z</time>
      </trkpt>
      <trkpt lat="45.87181" lon="5.92067">
        <ele>536.0723877</ele>
        <time>2012-10-28T11:10:46Z</time>
      </trkpt>
      <trkpt lat="45.87184" lon="5.9205">
        <ele>536.5531006</ele>
        <time>2012-10-28T11:10:51Z</time>
      </trkpt>
      <trkpt lat="45.87186" lon="5.92036">
        <ele>537.0336914</ele>
        <time>2012-10-28T11:10:55Z</time>
      </trkpt>
      <trkpt lat="45.87187" lon="5.92018">
        <ele>537.5142822</ele>
        <time>2012-10-28T11:11:00Z</time>
      </trkpt>
      <trkpt lat="45.87187" lon="5.92003">
        <ele>538.475708</ele>
        <time>2012-10-28T11:11:04Z</time>
      </trkpt>
      <trkpt lat="45.87191" lon="5.91983">
        <ele>539.4368896</ele>
        <time>2012-10-28T11:11:10Z</time>
      </trkpt>
      <trkpt lat="45.87195" lon="5.91969">
        <ele>540.3983154</ele>
        <time>2012-10-28T11:11:15Z</time>
      </trkpt>
      <trkpt lat="45.87197" lon="5.91963">
        <ele>540.8789063</ele>
        <time>2012-10-28T11:11:17Z</time>
      </trkpt>
      <trkpt lat="45.87201" lon="5.91944">
        <ele>541.3594971</ele>
        <time>2012-10-28T11:11:23Z</time>
      </trkpt>
      <trkpt lat="45.87202" lon="5.91942">
        <ele>541.3594971</ele>
        <time>2012-10-28T11:11:24Z</time>
      </trkpt>
      <trkpt lat="45.8721" lon="5.91928">
        <ele>541.84021</ele>
        <time>2012-10-28T11:11:30Z</time>
      </trkpt>
      <trkpt lat="45.8722" lon="5.91914">
        <ele>543.7628174</ele>
        <time>2012-10-28T11:11:36Z</time>
      </trkpt>
      <trkpt lat="45.8723" lon="5.91904">
        <ele>544.2436523</ele>
        <time>2012-10-28T11:11:41Z</time>
      </trkpt>
      <trkpt lat="45.87233" lon="5.919">
        <ele>544.2436523</ele>
        <time>2012-10-28T11:11:43Z</time>
      </trkpt>
      <trkpt lat="45.87248" lon="5.91888">
        <ele>545.204834</ele>
        <time>2012-10-28T11:11:50Z</time>
      </trkpt>
      <trkpt lat="45.8726" lon="5.91873">
        <ele>544.7242432</ele>
        <time>2012-10-28T11:11:56Z</time>
      </trkpt>
      <trkpt lat="45.87266" lon="5.91852">
        <ele>544.2436523</ele>
        <time>2012-10-28T11:12:01Z</time>
      </trkpt>
      <trkpt lat="45.87276" lon="5.91839">
        <ele>541.3594971</ele>
        <time>2012-10-28T11:12:06Z</time>
      </trkpt>
      <trkpt lat="45.87285" lon="5.91825">
        <ele>539.4368896</ele>
        <time>2012-10-28T11:12:11Z</time>
      </trkpt>
      <trkpt lat="45.87298" lon="5.91804">
        <ele>538.9562988</ele>
        <time>2012-10-28T11:12:18Z</time>
      </trkpt>
      <trkpt lat="45.87306" lon="5.9179">
        <ele>537.0336914</ele>
        <time>2012-10-28T11:12:22Z</time>
      </trkpt>
      <trkpt lat="45.87316" lon="5.91772">
        <ele>534.1496582</ele>
        <time>2012-10-28T11:12:27Z</time>
      </trkpt>
      <trkpt lat="45.87323" lon="5.91753">
        <ele>529.8237305</ele>
        <time>2012-10-28T11:12:32Z</time>
      </trkpt>
      <trkpt lat="45.87331" lon="5.91733">
        <ele>526.9398193</ele>
        <time>2012-10-28T11:12:37Z</time>
      </trkpt>
      <trkpt lat="45.87338" lon="5.91721">
        <ele>525.0172119</ele>
        <time>2012-10-28T11:12:41Z</time>
      </trkpt>
      <trkpt lat="45.87349" lon="5.91699">
        <ele>523.5751953</ele>
        <time>2012-10-28T11:12:48Z</time>
      </trkpt>
      <trkpt lat="45.87356" lon="5.91687">
        <ele>523.0946045</ele>
        <time>2012-10-28T11:12:52Z</time>
      </trkpt>
      <trkpt lat="45.87362" lon="5.91675">
        <ele>522.6138916</ele>
        <time>2012-10-28T11:12:56Z</time>
      </trkpt>
      <trkpt lat="45.87371" lon="5.91658">
        <ele>522.1331787</ele>
        <time>2012-10-28T11:13:01Z</time>
      </trkpt>
      <trkpt lat="45.87373" lon="5.91638">
        <ele>521.1719971</ele>
        <time>2012-10-28T11:13:06Z</time>
      </trkpt>
      <trkpt lat="45.87375" lon="5.9162">
        <ele>520.2105713</ele>
        <time>2012-10-28T11:13:10Z</time>
      </trkpt>
      <trkpt lat="45.87377" lon="5.91597">
        <ele>518.2878418</ele>
        <time>2012-10-28T11:13:15Z</time>
      </trkpt>
      <trkpt lat="45.87384" lon="5.91564">
        <ele>516.3652344</ele>
        <time>2012-10-28T11:13:22Z</time>
      </trkpt>
      <trkpt lat="45.8739" lon="5.91535">
        <ele>513.9620361</ele>
        <time>2012-10-28T11:13:28Z</time>
      </trkpt>
      <trkpt lat="45.87397" lon="5.91509">
        <ele>512.5200195</ele>
        <time>2012-10-28T11:13:34Z</time>
      </trkpt>
      <trkpt lat="45.87402" lon="5.91487">
        <ele>511.5587158</ele>
        <time>2012-10-28T11:13:39Z</time>
      </trkpt>
      <trkpt lat="45.87411" lon="5.91475">
        <ele>511.0780029</ele>
        <time>2012-10-28T11:13:43Z</time>
      </trkpt>
      <trkpt lat="45.87427" lon="5.91469">
        <ele>510.59729</ele>
        <time>2012-10-28T11:13:48Z</time>
      </trkpt>
      <trkpt lat="45.87438" lon="5.91465">
        <ele>510.1166992</ele>
        <time>2012-10-28T11:13:52Z</time>
      </trkpt>
      <trkpt lat="45.87455" lon="5.91467">
        <ele>509.1553955</ele>
        <time>2012-10-28T11:13:58Z</time>
      </trkpt>
      <trkpt lat="45.87465" lon="5.91476">
        <ele>507.2327881</ele>
        <time>2012-10-28T11:14:02Z</time>
      </trkpt>
      <trkpt lat="45.87481" lon="5.91485">
        <ele>506.2714844</ele>
        <time>2012-10-28T11:14:07Z</time>
      </trkpt>
      <trkpt lat="45.87493" lon="5.91491">
        <ele>505.7908936</ele>
        <time>2012-10-28T11:14:11Z</time>
      </trkpt>
      <trkpt lat="45.87504" lon="5.91504">
        <ele>505.3101807</ele>
        <time>2012-10-28T11:14:15Z</time>
      </trkpt>
      <trkpt lat="45.87516" lon="5.91504">
        <ele>505.7908936</ele>
        <time>2012-10-28T11:14:19Z</time>
      </trkpt>
      <trkpt lat="45.87529" lon="5.91502">
        <ele>505.7908936</ele>
        <time>2012-10-28T11:14:23Z</time>
      </trkpt>
      <trkpt lat="45.87551" lon="5.91495">
        <ele>504.348877</ele>
        <time>2012-10-28T11:14:30Z</time>
      </trkpt>
      <trkpt lat="45.87556" lon="5.91481">
        <ele>504.348877</ele>
        <time>2012-10-28T11:14:34Z</time>
      </trkpt>
      <trkpt lat="45.87557" lon="5.91461">
        <ele>504.8294678</ele>
        <time>2012-10-28T11:14:39Z</time>
      </trkpt>
      <trkpt lat="45.87557" lon="5.91441">
        <ele>506.2714844</ele>
        <time>2012-10-28T11:14:44Z</time>
      </trkpt>
      <trkpt lat="45.87558" lon="5.91417">
        <ele>508.1940918</ele>
        <time>2012-10-28T11:14:50Z</time>
      </trkpt>
      <trkpt lat="45.87559" lon="5.914">
        <ele>509.1553955</ele>
        <time>2012-10-28T11:14:54Z</time>
      </trkpt>
      <trkpt lat="45.87561" lon="5.91376">
        <ele>509.1553955</ele>
        <time>2012-10-28T11:14:59Z</time>
      </trkpt>
      <trkpt lat="45.87566" lon="5.91355">
        <ele>507.713501</ele>
        <time>2012-10-28T11:15:04Z</time>
      </trkpt>
      <trkpt lat="45.87572" lon="5.91334">
        <ele>506.2714844</ele>
        <time>2012-10-28T11:15:09Z</time>
      </trkpt>
      <trkpt lat="45.87578" lon="5.91315">
        <ele>505.3101807</ele>
        <time>2012-10-28T11:15:13Z</time>
      </trkpt>
      <trkpt lat="45.87587" lon="5.91297">
        <ele>504.348877</ele>
        <time>2012-10-28T11:15:18Z</time>
      </trkpt>
      <trkpt lat="45.87594" lon="5.9128">
        <ele>503.3874512</ele>
        <time>2012-10-28T11:15:22Z</time>
      </trkpt>
      <trkpt lat="45.87603" lon="5.91264">
        <ele>501.4648438</ele>
        <time>2012-10-28T11:15:27Z</time>
      </trkpt>
      <trkpt lat="45.87612" lon="5.91248">
        <ele>500.50354</ele>
        <time>2012-10-28T11:15:32Z</time>
      </trkpt>
      <trkpt lat="45.87621" lon="5.91226">
        <ele>500.50354</ele>
        <time>2012-10-28T11:15:38Z</time>
      </trkpt>
      <trkpt lat="45.87629" lon="5.91212">
        <ele>500.50354</ele>
        <time>2012-10-28T11:15:42Z</time>
      </trkpt>
      <trkpt lat="45.87637" lon="5.91199">
        <ele>499.5422363</ele>
        <time>2012-10-28T11:15:46Z</time>
      </trkpt>
      <trkpt lat="45.87656" lon="5.91182">
        <ele>497.6196289</ele>
        <time>2012-10-28T11:15:53Z</time>
      </trkpt>
      <trkpt lat="45.87669" lon="5.91168">
        <ele>495.6968994</ele>
        <time>2012-10-28T11:15:58Z</time>
      </trkpt>
      <trkpt lat="45.87682" lon="5.91152">
        <ele>494.2550049</ele>
        <time>2012-10-28T11:16:03Z</time>
      </trkpt>
      <trkpt lat="45.87695" lon="5.91137">
        <ele>492.3323975</ele>
        <time>2012-10-28T11:16:08Z</time>
      </trkpt>
      <trkpt lat="45.87699" lon="5.91133">
        <ele>491.3709717</ele>
        <time>2012-10-28T11:16:10Z</time>
      </trkpt>
      <trkpt lat="45.87695" lon="5.91131">
        <ele>489.4483643</ele>
        <time>2012-10-28T11:16:14Z</time>
      </trkpt>
      <trkpt lat="45.877" lon="5.91128">
        <ele>488.4871826</ele>
        <time>2012-10-28T11:16:18Z</time>
      </trkpt>
      <trkpt lat="45.87717" lon="5.91118">
        <ele>488.0064697</ele>
        <time>2012-10-28T11:16:24Z</time>
      </trkpt>
      <trkpt lat="45.87734" lon="5.91115">
        <ele>488.9677734</ele>
        <time>2012-10-28T11:16:29Z</time>
      </trkpt>
      <trkpt lat="45.87752" lon="5.91108">
        <ele>487.5256348</ele>
        <time>2012-10-28T11:16:34Z</time>
      </trkpt>
      <trkpt lat="45.87773" lon="5.91102">
        <ele>484.6418457</ele>
        <time>2012-10-28T11:16:40Z</time>
      </trkpt>
      <trkpt lat="45.87791" lon="5.91098">
        <ele>482.7192383</ele>
        <time>2012-10-28T11:16:45Z</time>
      </trkpt>
      <trkpt lat="45.87804" lon="5.91097">
        <ele>480.7966309</ele>
        <time>2012-10-28T11:16:49Z</time>
      </trkpt>
      <trkpt lat="45.87824" lon="5.91093">
        <ele>478.3931885</ele>
        <time>2012-10-28T11:16:55Z</time>
      </trkpt>
      <trkpt lat="45.8784" lon="5.91092">
        <ele>475.9898682</ele>
        <time>2012-10-28T11:17:00Z</time>
      </trkpt>
      <trkpt lat="45.8786" lon="5.91094">
        <ele>473.1060791</ele>
        <time>2012-10-28T11:17:06Z</time>
      </trkpt>
      <trkpt lat="45.87877" lon="5.91102">
        <ele>471.6639404</ele>
        <time>2012-10-28T11:17:11Z</time>
      </trkpt>
      <trkpt lat="45.87891" lon="5.91108">
        <ele>470.2219238</ele>
        <time>2012-10-28T11:17:15Z</time>
      </trkpt>
      <trkpt lat="45.87905" lon="5.91113">
        <ele>469.2607422</ele>
        <time>2012-10-28T11:17:19Z</time>
      </trkpt>
      <trkpt lat="45.87912" lon="5.91115">
        <ele>468.2993164</ele>
        <time>2012-10-28T11:17:21Z</time>
      </trkpt>
      <trkpt lat="45.87925" lon="5.91107">
        <ele>468.2993164</ele>
        <time>2012-10-28T11:17:25Z</time>
      </trkpt>
      <trkpt lat="45.8794" lon="5.91095">
        <ele>468.2993164</ele>
        <time>2012-10-28T11:17:31Z</time>
      </trkpt>
      <trkpt lat="45.87956" lon="5.91088">
        <ele>468.2993164</ele>
        <time>2012-10-28T11:17:36Z</time>
      </trkpt>
      <trkpt lat="45.87971" lon="5.91083">
        <ele>467.3381348</ele>
        <time>2012-10-28T11:17:41Z</time>
      </trkpt>
      <trkpt lat="45.87986" lon="5.91076">
        <ele>465.4155273</ele>
        <time>2012-10-28T11:17:46Z</time>
      </trkpt>
      <trkpt lat="45.87992" lon="5.91053">
        <ele>462.0507813</ele>
        <time>2012-10-28T11:17:51Z</time>
      </trkpt>
      <trkpt lat="45.87991" lon="5.91034">
        <ele>459.1668701</ele>
        <time>2012-10-28T11:17:55Z</time>
      </trkpt>
      <trkpt lat="45.87985" lon="5.91019">
        <ele>456.282959</ele>
        <time>2012-10-28T11:17:59Z</time>
      </trkpt>
      <trkpt lat="45.87983" lon="5.91015">
        <ele>455.3215332</ele>
        <time>2012-10-28T11:18:01Z</time>
      </trkpt>
      <trkpt lat="45.87968" lon="5.91009">
        <ele>451.9570313</ele>
        <time>2012-10-28T11:18:06Z</time>
      </trkpt>
      <trkpt lat="45.87949" lon="5.91007">
        <ele>450.9956055</ele>
        <time>2012-10-28T11:18:12Z</time>
      </trkpt>
      <trkpt lat="45.87946" lon="5.91006">
        <ele>450.9956055</ele>
        <time>2012-10-28T11:18:13Z</time>
      </trkpt>
      <trkpt lat="45.8793" lon="5.91003">
        <ele>450.0344238</ele>
        <time>2012-10-28T11:18:18Z</time>
      </trkpt>
      <trkpt lat="45.87921" lon="5.9099">
        <ele>450.0344238</ele>
        <time>2012-10-28T11:18:22Z</time>
      </trkpt>
      <trkpt lat="45.87916" lon="5.90982">
        <ele>450.9956055</ele>
        <time>2012-10-28T11:18:24Z</time>
      </trkpt>
      <trkpt lat="45.87918" lon="5.90962">
        <ele>450.9956055</ele>
        <time>2012-10-28T11:18:28Z</time>
      </trkpt>
      <trkpt lat="45.87931" lon="5.9094">
        <ele>449.5537109</ele>
        <time>2012-10-28T11:18:34Z</time>
      </trkpt>
      <trkpt lat="45.87944" lon="5.90923">
        <ele>447.6309814</ele>
        <time>2012-10-28T11:18:39Z</time>
      </trkpt>
      <trkpt lat="45.87957" lon="5.90899">
        <ele>445.2276611</ele>
        <time>2012-10-28T11:18:45Z</time>
      </trkpt>
      <trkpt lat="45.8797" lon="5.90874">
        <ele>444.2664795</ele>
        <time>2012-10-28T11:18:51Z</time>
      </trkpt>
      <trkpt lat="45.87985" lon="5.90855">
        <ele>443.7857666</ele>
        <time>2012-10-28T11:18:57Z</time>
      </trkpt>
      <trkpt lat="45.87995" lon="5.90834">
        <ele>441.8631592</ele>
        <time>2012-10-28T11:19:02Z</time>
      </trkpt>
      <trkpt lat="45.88006" lon="5.90815">
        <ele>438.979126</ele>
        <time>2012-10-28T11:19:07Z</time>
      </trkpt>
      <trkpt lat="45.88018" lon="5.90798">
        <ele>436.5759277</ele>
        <time>2012-10-28T11:19:12Z</time>
      </trkpt>
      <trkpt lat="45.88033" lon="5.90785">
        <ele>434.6533203</ele>
        <time>2012-10-28T11:19:17Z</time>
      </trkpt>
      <trkpt lat="45.8805" lon="5.90771">
        <ele>431.2885742</ele>
        <time>2012-10-28T11:19:23Z</time>
      </trkpt>
      <trkpt lat="45.88064" lon="5.90759">
        <ele>428.4046631</ele>
        <time>2012-10-28T11:19:28Z</time>
      </trkpt>
      <trkpt lat="45.8809" lon="5.90743">
        <ele>425.520752</ele>
        <time>2012-10-28T11:19:36Z</time>
      </trkpt>
      <trkpt lat="45.88103" lon="5.90736">
        <ele>424.5594482</ele>
        <time>2012-10-28T11:19:40Z</time>
      </trkpt>
      <trkpt lat="45.8812" lon="5.9073">
        <ele>422.1560059</ele>
        <time>2012-10-28T11:19:45Z</time>
      </trkpt>
      <trkpt lat="45.88133" lon="5.90727">
        <ele>420.7141113</ele>
        <time>2012-10-28T11:19:49Z</time>
      </trkpt>
      <trkpt lat="45.88148" lon="5.90726">
        <ele>419.2722168</ele>
        <time>2012-10-28T11:19:53Z</time>
      </trkpt>
      <trkpt lat="45.88162" lon="5.90728">
        <ele>417.8302002</ele>
        <time>2012-10-28T11:19:57Z</time>
      </trkpt>
      <trkpt lat="45.8818" lon="5.90728">
        <ele>414.946167</ele>
        <time>2012-10-28T11:20:02Z</time>
      </trkpt>
      <trkpt lat="45.88198" lon="5.90726">
        <ele>413.9848633</ele>
        <time>2012-10-28T11:20:07Z</time>
      </trkpt>
      <trkpt lat="45.88211" lon="5.90726">
        <ele>412.0622559</ele>
        <time>2012-10-28T11:20:11Z</time>
      </trkpt>
      <trkpt lat="45.88235" lon="5.90731">
        <ele>407.7363281</ele>
        <time>2012-10-28T11:20:17Z</time>
      </trkpt>
      <trkpt lat="45.88259" lon="5.90736">
        <ele>404.3717041</ele>
        <time>2012-10-28T11:20:23Z</time>
      </trkpt>
      <trkpt lat="45.88281" lon="5.90741">
        <ele>402.4490967</ele>
        <time>2012-10-28T11:20:29Z</time>
      </trkpt>
      <trkpt lat="45.88301" lon="5.90741">
        <ele>400.5264893</ele>
        <time>2012-10-28T11:20:34Z</time>
      </trkpt>
      <trkpt lat="45.88314" lon="5.90736">
        <ele>400.0458984</ele>
        <time>2012-10-28T11:20:38Z</time>
      </trkpt>
      <trkpt lat="45.8833" lon="5.90726">
        <ele>400.5264893</ele>
        <time>2012-10-28T11:20:43Z</time>
      </trkpt>
      <trkpt lat="45.88343" lon="5.90715">
        <ele>401.9685059</ele>
        <time>2012-10-28T11:20:48Z</time>
      </trkpt>
      <trkpt lat="45.88354" lon="5.90704">
        <ele>403.8911133</ele>
        <time>2012-10-28T11:20:53Z</time>
      </trkpt>
      <trkpt lat="45.88363" lon="5.90694">
        <ele>405.8137207</ele>
        <time>2012-10-28T11:20:57Z</time>
      </trkpt>
      <trkpt lat="45.88371" lon="5.90678">
        <ele>409.1783447</ele>
        <time>2012-10-28T11:21:02Z</time>
      </trkpt>
      <trkpt lat="45.88373" lon="5.90666">
        <ele>411.1009521</ele>
        <time>2012-10-28T11:21:05Z</time>
      </trkpt>
      <trkpt lat="45.88373" lon="5.90656">
        <ele>412.0622559</ele>
        <time>2012-10-28T11:21:07Z</time>
      </trkpt>
      <trkpt lat="45.88374" lon="5.90637">
        <ele>412.5428467</ele>
        <time>2012-10-28T11:21:12Z</time>
      </trkpt>
      <trkpt lat="45.88376" lon="5.90617">
        <ele>413.5042725</ele>
        <time>2012-10-28T11:21:18Z</time>
      </trkpt>
      <trkpt lat="45.88377" lon="5.90597">
        <ele>414.4654541</ele>
        <time>2012-10-28T11:21:23Z</time>
      </trkpt>
      <trkpt lat="45.88375" lon="5.90573">
        <ele>415.9074707</ele>
        <time>2012-10-28T11:21:29Z</time>
      </trkpt>
      <trkpt lat="45.88375" lon="5.90558">
        <ele>416.3881836</ele>
        <time>2012-10-28T11:21:34Z</time>
      </trkpt>
      <trkpt lat="45.88373" lon="5.90545">
        <ele>418.310791</ele>
        <time>2012-10-28T11:21:38Z</time>
      </trkpt>
      <trkpt lat="45.88371" lon="5.90529">
        <ele>421.1948242</ele>
        <time>2012-10-28T11:21:43Z</time>
      </trkpt>
      <trkpt lat="45.88369" lon="5.90514">
        <ele>421.675415</ele>
        <time>2012-10-28T11:21:47Z</time>
      </trkpt>
      <trkpt lat="45.88371" lon="5.90492">
        <ele>423.1174316</ele>
        <time>2012-10-28T11:21:52Z</time>
      </trkpt>
      <trkpt lat="45.8838" lon="5.90478">
        <ele>424.0787354</ele>
        <time>2012-10-28T11:21:57Z</time>
      </trkpt>
      <trkpt lat="45.88394" lon="5.90476">
        <ele>424.0787354</ele>
        <time>2012-10-28T11:22:02Z</time>
      </trkpt>
      <trkpt lat="45.88397" lon="5.90477">
        <ele>423.1174316</ele>
        <time>2012-10-28T11:22:03Z</time>
      </trkpt>
      <trkpt lat="45.88412" lon="5.90483">
        <ele>421.675415</ele>
        <time>2012-10-28T11:22:09Z</time>
      </trkpt>
      <trkpt lat="45.88423" lon="5.90485">
        <ele>420.7141113</ele>
        <time>2012-10-28T11:22:14Z</time>
      </trkpt>
      <trkpt lat="45.88432" lon="5.90483">
        <ele>420.2333984</ele>
        <time>2012-10-28T11:22:18Z</time>
      </trkpt>
      <trkpt lat="45.88437" lon="5.90481">
        <ele>419.7528076</ele>
        <time>2012-10-28T11:22:21Z</time>
      </trkpt>
      <trkpt lat="45.88445" lon="5.90473">
        <ele>419.7528076</ele>
        <time>2012-10-28T11:22:25Z</time>
      </trkpt>
      <trkpt lat="45.88452" lon="5.90464">
        <ele>420.2333984</ele>
        <time>2012-10-28T11:22:29Z</time>
      </trkpt>
      <trkpt lat="45.88458" lon="5.90446">
        <ele>421.675415</ele>
        <time>2012-10-28T11:22:35Z</time>
      </trkpt>
      <trkpt lat="45.88459" lon="5.90444">
        <ele>421.675415</ele>
        <time>2012-10-28T11:22:36Z</time>
      </trkpt>
      <trkpt lat="45.88465" lon="5.90432">
        <ele>424.0787354</ele>
        <time>2012-10-28T11:22:40Z</time>
      </trkpt>
      <trkpt lat="45.88473" lon="5.90416">
        <ele>425.0401611</ele>
        <time>2012-10-28T11:22:46Z</time>
      </trkpt>
      <trkpt lat="45.88477" lon="5.90412">
        <ele>425.520752</ele>
        <time>2012-10-28T11:22:49Z</time>
      </trkpt>
      <trkpt lat="45.88483" lon="5.90405">
        <ele>426.0013428</ele>
        <time>2012-10-28T11:22:52Z</time>
      </trkpt>
      <trkpt lat="45.8849" lon="5.90394">
        <ele>426.4820557</ele>
        <time>2012-10-28T11:22:57Z</time>
      </trkpt>
      <trkpt lat="45.88503" lon="5.90381">
        <ele>428.885376</ele>
        <time>2012-10-28T11:23:04Z</time>
      </trkpt>
      <trkpt lat="45.88509" lon="5.90372">
        <ele>429.8465576</ele>
        <time>2012-10-28T11:23:08Z</time>
      </trkpt>
      <trkpt lat="45.88511" lon="5.90369">
        <ele>430.3272705</ele>
        <time>2012-10-28T11:23:09Z</time>
      </trkpt>
      <trkpt lat="45.88519" lon="5.90359">
        <ele>431.2885742</ele>
        <time>2012-10-28T11:23:14Z</time>
      </trkpt>
      <trkpt lat="45.88526" lon="5.90349">
        <ele>431.769165</ele>
        <time>2012-10-28T11:23:18Z</time>
      </trkpt>
      <trkpt lat="45.88534" lon="5.90335">
        <ele>432.25</ele>
        <time>2012-10-28T11:23:23Z</time>
      </trkpt>
      <trkpt lat="45.88541" lon="5.90318">
        <ele>432.25</ele>
        <time>2012-10-28T11:23:28Z</time>
      </trkpt>
      <trkpt lat="45.88549" lon="5.90303">
        <ele>431.2885742</ele>
        <time>2012-10-28T11:23:33Z</time>
      </trkpt>
      <trkpt lat="45.88557" lon="5.90289">
        <ele>431.2885742</ele>
        <time>2012-10-28T11:23:38Z</time>
      </trkpt>
      <trkpt lat="45.88564" lon="5.90275">
        <ele>430.8079834</ele>
        <time>2012-10-28T11:23:43Z</time>
      </trkpt>
      <trkpt lat="45.88571" lon="5.90263">
        <ele>431.769165</ele>
        <time>2012-10-28T11:23:47Z</time>
      </trkpt>
      <trkpt lat="45.88576" lon="5.9025">
        <ele>432.7307129</ele>
        <time>2012-10-28T11:23:51Z</time>
      </trkpt>
      <trkpt lat="45.88582" lon="5.90237">
        <ele>434.6533203</ele>
        <time>2012-10-28T11:23:55Z</time>
      </trkpt>
      <trkpt lat="45.88587" lon="5.90219">
        <ele>436.5759277</ele>
        <time>2012-10-28T11:24:00Z</time>
      </trkpt>
      <trkpt lat="45.8859" lon="5.902">
        <ele>436.5759277</ele>
        <time>2012-10-28T11:24:05Z</time>
      </trkpt>
      <trkpt lat="45.88594" lon="5.90177">
        <ele>437.5371094</ele>
        <time>2012-10-28T11:24:11Z</time>
      </trkpt>
      <trkpt lat="45.88599" lon="5.90159">
        <ele>438.979126</ele>
        <time>2012-10-28T11:24:16Z</time>
      </trkpt>
      <trkpt lat="45.88604" lon="5.9015">
        <ele>440.9018555</ele>
        <time>2012-10-28T11:24:19Z</time>
      </trkpt>
      <trkpt lat="45.88616" lon="5.90141">
        <ele>439.4597168</ele>
        <time>2012-10-28T11:24:25Z</time>
      </trkpt>
      <trkpt lat="45.88619" lon="5.90141">
        <ele>438.979126</ele>
        <time>2012-10-28T11:24:26Z</time>
      </trkpt>
      <trkpt lat="45.88634" lon="5.90142">
        <ele>438.4985352</ele>
        <time>2012-10-28T11:24:32Z</time>
      </trkpt>
      <trkpt lat="45.88642" lon="5.90141">
        <ele>438.979126</ele>
        <time>2012-10-28T11:24:36Z</time>
      </trkpt>
      <trkpt lat="45.88651" lon="5.90143">
        <ele>439.4597168</ele>
        <time>2012-10-28T11:24:40Z</time>
      </trkpt>
      <trkpt lat="45.88665" lon="5.90146">
        <ele>439.9404297</ele>
        <time>2012-10-28T11:24:46Z</time>
      </trkpt>
      <trkpt lat="45.88678" lon="5.90148">
        <ele>440.9018555</ele>
        <time>2012-10-28T11:24:51Z</time>
      </trkpt>
      <trkpt lat="45.88692" lon="5.90149">
        <ele>442.8244629</ele>
        <time>2012-10-28T11:24:56Z</time>
      </trkpt>
      <trkpt lat="45.88704" lon="5.9015">
        <ele>443.7857666</ele>
        <time>2012-10-28T11:25:01Z</time>
      </trkpt>
      <trkpt lat="45.8872" lon="5.90153">
        <ele>444.2664795</ele>
        <time>2012-10-28T11:25:07Z</time>
      </trkpt>
      <trkpt lat="45.88734" lon="5.90154">
        <ele>444.7470703</ele>
        <time>2012-10-28T11:25:12Z</time>
      </trkpt>
      <trkpt lat="45.88747" lon="5.90155">
        <ele>444.2664795</ele>
        <time>2012-10-28T11:25:17Z</time>
      </trkpt>
      <trkpt lat="45.88761" lon="5.90156">
        <ele>445.2276611</ele>
        <time>2012-10-28T11:25:22Z</time>
      </trkpt>
      <trkpt lat="45.88776" lon="5.90155">
        <ele>446.6696777</ele>
        <time>2012-10-28T11:25:28Z</time>
      </trkpt>
      <trkpt lat="45.88787" lon="5.90152">
        <ele>446.6696777</ele>
        <time>2012-10-28T11:25:33Z</time>
      </trkpt>
      <trkpt lat="45.88792" lon="5.90148">
        <ele>446.6696777</ele>
        <time>2012-10-28T11:25:35Z</time>
      </trkpt>
      <trkpt lat="45.88797" lon="5.90138">
        <ele>446.1890869</ele>
        <time>2012-10-28T11:25:38Z</time>
      </trkpt>
      <trkpt lat="45.88805" lon="5.90116">
        <ele>444.2664795</ele>
        <time>2012-10-28T11:25:44Z</time>
      </trkpt>
      <trkpt lat="45.8881" lon="5.90093">
        <ele>443.3050537</ele>
        <time>2012-10-28T11:25:49Z</time>
      </trkpt>
      <trkpt lat="45.88817" lon="5.90067">
        <ele>442.3438721</ele>
        <time>2012-10-28T11:25:55Z</time>
      </trkpt>
      <trkpt lat="45.88824" lon="5.90049">
        <ele>439.4597168</ele>
        <time>2012-10-28T11:26:00Z</time>
      </trkpt>
      <trkpt lat="45.88832" lon="5.9003">
        <ele>438.979126</ele>
        <time>2012-10-28T11:26:05Z</time>
      </trkpt>
      <trkpt lat="45.88841" lon="5.9001">
        <ele>438.0178223</ele>
        <time>2012-10-28T11:26:10Z</time>
      </trkpt>
      <trkpt lat="45.8885" lon="5.89998">
        <ele>438.4985352</ele>
        <time>2012-10-28T11:26:14Z</time>
      </trkpt>
      <trkpt lat="45.88861" lon="5.8999">
        <ele>438.4985352</ele>
        <time>2012-10-28T11:26:18Z</time>
      </trkpt>
      <trkpt lat="45.88874" lon="5.90002">
        <ele>437.0565186</ele>
        <time>2012-10-28T11:26:23Z</time>
      </trkpt>
      <trkpt lat="45.88877" lon="5.90012">
        <ele>435.614502</ele>
        <time>2012-10-28T11:26:26Z</time>
      </trkpt>
      <trkpt lat="45.88878" lon="5.90017">
        <ele>435.614502</ele>
        <time>2012-10-28T11:26:27Z</time>
      </trkpt>
      <trkpt lat="45.8888" lon="5.90044">
        <ele>433.6918945</ele>
        <time>2012-10-28T11:26:33Z</time>
      </trkpt>
      <trkpt lat="45.88886" lon="5.9006">
        <ele>433.6918945</ele>
        <time>2012-10-28T11:26:37Z</time>
      </trkpt>
      <trkpt lat="45.88895" lon="5.90072">
        <ele>434.1726074</ele>
        <time>2012-10-28T11:26:41Z</time>
      </trkpt>
      <trkpt lat="45.88904" lon="5.90084">
        <ele>434.6533203</ele>
        <time>2012-10-28T11:26:46Z</time>
      </trkpt>
      <trkpt lat="45.88911" lon="5.90096">
        <ele>436.0952148</ele>
        <time>2012-10-28T11:26:50Z</time>
      </trkpt>
      <trkpt lat="45.88918" lon="5.90107">
        <ele>437.0565186</ele>
        <time>2012-10-28T11:26:54Z</time>
      </trkpt>
      <trkpt lat="45.88925" lon="5.90119">
        <ele>438.4985352</ele>
        <time>2012-10-28T11:26:59Z</time>
      </trkpt>
      <trkpt lat="45.88935" lon="5.90132">
        <ele>439.9404297</ele>
        <time>2012-10-28T11:27:05Z</time>
      </trkpt>
      <trkpt lat="45.88945" lon="5.90137">
        <ele>441.3824463</ele>
        <time>2012-10-28T11:27:10Z</time>
      </trkpt>
      <trkpt lat="45.88959" lon="5.90133">
        <ele>442.3438721</ele>
        <time>2012-10-28T11:27:16Z</time>
      </trkpt>
      <trkpt lat="45.8897" lon="5.90126">
        <ele>443.3050537</ele>
        <time>2012-10-28T11:27:21Z</time>
      </trkpt>
      <trkpt lat="45.88981" lon="5.90114">
        <ele>444.7470703</ele>
        <time>2012-10-28T11:27:26Z</time>
      </trkpt>
      <trkpt lat="45.88993" lon="5.90105">
        <ele>445.708374</ele>
        <time>2012-10-28T11:27:31Z</time>
      </trkpt>
      <trkpt lat="45.89002" lon="5.90097">
        <ele>445.708374</ele>
        <time>2012-10-28T11:27:35Z</time>
      </trkpt>
      <trkpt lat="45.89014" lon="5.90089">
        <ele>447.1502686</ele>
        <time>2012-10-28T11:27:40Z</time>
      </trkpt>
      <trkpt lat="45.89024" lon="5.90085">
        <ele>448.5924072</ele>
        <time>2012-10-28T11:27:44Z</time>
      </trkpt>
      <trkpt lat="45.89034" lon="5.90079">
        <ele>450.5150146</ele>
        <time>2012-10-28T11:27:49Z</time>
      </trkpt>
      <trkpt lat="45.89046" lon="5.90072">
        <ele>452.4376221</ele>
        <time>2012-10-28T11:27:55Z</time>
      </trkpt>
      <trkpt lat="45.89057" lon="5.90068">
        <ele>454.3602295</ele>
        <time>2012-10-28T11:28:00Z</time>
      </trkpt>
      <trkpt lat="45.89067" lon="5.90064">
        <ele>455.8022461</ele>
        <time>2012-10-28T11:28:05Z</time>
      </trkpt>
      <trkpt lat="45.89077" lon="5.9006">
        <ele>455.8022461</ele>
        <time>2012-10-28T11:28:10Z</time>
      </trkpt>
      <trkpt lat="45.89089" lon="5.90057">
        <ele>456.7635498</ele>
        <time>2012-10-28T11:28:15Z</time>
      </trkpt>
      <trkpt lat="45.89104" lon="5.90054">
        <ele>457.2442627</ele>
        <time>2012-10-28T11:28:21Z</time>
      </trkpt>
      <trkpt lat="45.89115" lon="5.90052">
        <ele>457.7249756</ele>
        <time>2012-10-28T11:28:26Z</time>
      </trkpt>
      <trkpt lat="45.89127" lon="5.90044">
        <ele>458.2055664</ele>
        <time>2012-10-28T11:28:32Z</time>
      </trkpt>
      <trkpt lat="45.89137" lon="5.90036">
        <ele>459.1668701</ele>
        <time>2012-10-28T11:28:37Z</time>
      </trkpt>
      <trkpt lat="45.89144" lon="5.90028">
        <ele>460.1281738</ele>
        <time>2012-10-28T11:28:41Z</time>
      </trkpt>
      <trkpt lat="45.89152" lon="5.90013">
        <ele>462.5313721</ele>
        <time>2012-10-28T11:28:47Z</time>
      </trkpt>
      <trkpt lat="45.89158" lon="5.9">
        <ele>463.9733887</ele>
        <time>2012-10-28T11:28:52Z</time>
      </trkpt>
      <trkpt lat="45.89164" lon="5.89988">
        <ele>464.4541016</ele>
        <time>2012-10-28T11:28:57Z</time>
      </trkpt>
      <trkpt lat="45.89165" lon="5.89986">
        <ele>464.4541016</ele>
        <time>2012-10-28T11:28:58Z</time>
      </trkpt>
      <trkpt lat="45.89172" lon="5.89969">
        <ele>464.9348145</ele>
        <time>2012-10-28T11:29:04Z</time>
      </trkpt>
      <trkpt lat="45.89174" lon="5.89957">
        <ele>465.4155273</ele>
        <time>2012-10-28T11:29:08Z</time>
      </trkpt>
      <trkpt lat="45.89176" lon="5.89949">
        <ele>466.376709</ele>
        <time>2012-10-28T11:29:11Z</time>
      </trkpt>
      <trkpt lat="45.89175" lon="5.89935">
        <ele>467.3381348</ele>
        <time>2012-10-28T11:29:16Z</time>
      </trkpt>
      <trkpt lat="45.89175" lon="5.8992">
        <ele>469.2607422</ele>
        <time>2012-10-28T11:29:21Z</time>
      </trkpt>
      <trkpt lat="45.89174" lon="5.89898">
        <ele>471.1833496</ele>
        <time>2012-10-28T11:29:28Z</time>
      </trkpt>
      <trkpt lat="45.89175" lon="5.89881">
        <ele>473.5866699</ele>
        <time>2012-10-28T11:29:33Z</time>
      </trkpt>
      <trkpt lat="45.89176" lon="5.89875">
        <ele>473.5866699</ele>
        <time>2012-10-28T11:29:35Z</time>
      </trkpt>
      <trkpt lat="45.89181" lon="5.89856">
        <ele>475.5092773</ele>
        <time>2012-10-28T11:29:41Z</time>
      </trkpt>
      <trkpt lat="45.89184" lon="5.89845">
        <ele>475.0286865</ele>
        <time>2012-10-28T11:29:45Z</time>
      </trkpt>
      <trkpt lat="45.89189" lon="5.8983">
        <ele>475.9898682</ele>
        <time>2012-10-28T11:29:50Z</time>
      </trkpt>
      <trkpt lat="45.8919" lon="5.89814">
        <ele>476.4705811</ele>
        <time>2012-10-28T11:29:54Z</time>
      </trkpt>
      <trkpt lat="45.89195" lon="5.89801">
        <ele>475.5092773</ele>
        <time>2012-10-28T11:29:59Z</time>
      </trkpt>
      <trkpt lat="45.89199" lon="5.89789">
        <ele>475.9898682</ele>
        <time>2012-10-28T11:30:03Z</time>
      </trkpt>
      <trkpt lat="45.89203" lon="5.89768">
        <ele>477.4318848</ele>
        <time>2012-10-28T11:30:09Z</time>
      </trkpt>
      <trkpt lat="45.8921" lon="5.89755">
        <ele>479.3544922</ele>
        <time>2012-10-28T11:30:14Z</time>
      </trkpt>
      <trkpt lat="45.89211" lon="5.89752">
        <ele>479.3544922</ele>
        <time>2012-10-28T11:30:15Z</time>
      </trkpt>
      <trkpt lat="45.89218" lon="5.89738">
        <ele>481.2772217</ele>
        <time>2012-10-28T11:30:20Z</time>
      </trkpt>
      <trkpt lat="45.89227" lon="5.89722">
        <ele>482.2385254</ele>
        <time>2012-10-28T11:30:26Z</time>
      </trkpt>
      <trkpt lat="45.8923" lon="5.89718">
        <ele>482.7192383</ele>
        <time>2012-10-28T11:30:28Z</time>
      </trkpt>
      <trkpt lat="45.89236" lon="5.89705">
        <ele>484.6418457</ele>
        <time>2012-10-28T11:30:33Z</time>
      </trkpt>
      <trkpt lat="45.89233" lon="5.89689">
        <ele>487.5256348</ele>
        <time>2012-10-28T11:30:38Z</time>
      </trkpt>
      <trkpt lat="45.89226" lon="5.89678">
        <ele>491.3709717</ele>
        <time>2012-10-28T11:30:43Z</time>
      </trkpt>
      <trkpt lat="45.89217" lon="5.89668">
        <ele>494.2550049</ele>
        <time>2012-10-28T11:30:48Z</time>
      </trkpt>
      <trkpt lat="45.89209" lon="5.89655">
        <ele>495.2161865</ele>
        <time>2012-10-28T11:30:53Z</time>
      </trkpt>
      <trkpt lat="45.89205" lon="5.89635">
        <ele>495.2161865</ele>
        <time>2012-10-28T11:30:58Z</time>
      </trkpt>
      <trkpt lat="45.89204" lon="5.89615">
        <ele>494.2550049</ele>
        <time>2012-10-28T11:31:03Z</time>
      </trkpt>
      <trkpt lat="45.89205" lon="5.89599">
        <ele>494.2550049</ele>
        <time>2012-10-28T11:31:07Z</time>
      </trkpt>
      <trkpt lat="45.89206" lon="5.89581">
        <ele>495.2161865</ele>
        <time>2012-10-28T11:31:12Z</time>
      </trkpt>
      <trkpt lat="45.89207" lon="5.89565">
        <ele>496.6583252</ele>
        <time>2012-10-28T11:31:17Z</time>
      </trkpt>
      <trkpt lat="45.89207" lon="5.89546">
        <ele>498.1003418</ele>
        <time>2012-10-28T11:31:22Z</time>
      </trkpt>
      <trkpt lat="45.89209" lon="5.8953">
        <ele>497.6196289</ele>
        <time>2012-10-28T11:31:27Z</time>
      </trkpt>
      <trkpt lat="45.8921" lon="5.89516">
        <ele>499.0615234</ele>
        <time>2012-10-28T11:31:31Z</time>
      </trkpt>
      <trkpt lat="45.89211" lon="5.89513">
        <ele>498.5809326</ele>
        <time>2012-10-28T11:31:32Z</time>
      </trkpt>
      <trkpt lat="45.89219" lon="5.89501">
        <ele>499.0615234</ele>
        <time>2012-10-28T11:31:37Z</time>
      </trkpt>
      <trkpt lat="45.89238" lon="5.89492">
        <ele>500.50354</ele>
        <time>2012-10-28T11:31:45Z</time>
      </trkpt>
      <trkpt lat="45.8925" lon="5.89496">
        <ele>500.50354</ele>
        <time>2012-10-28T11:31:50Z</time>
      </trkpt>
      <trkpt lat="45.89262" lon="5.895">
        <ele>500.9841309</ele>
        <time>2012-10-28T11:31:55Z</time>
      </trkpt>
      <trkpt lat="45.89274" lon="5.89506">
        <ele>501.4648438</ele>
        <time>2012-10-28T11:32:00Z</time>
      </trkpt>
      <trkpt lat="45.89288" lon="5.89513">
        <ele>502.9067383</ele>
        <time>2012-10-28T11:32:06Z</time>
      </trkpt>
      <trkpt lat="45.89297" lon="5.89517">
        <ele>503.3874512</ele>
        <time>2012-10-28T11:32:10Z</time>
      </trkpt>
      <trkpt lat="45.8931" lon="5.89519">
        <ele>503.3874512</ele>
        <time>2012-10-28T11:32:15Z</time>
      </trkpt>
      <trkpt lat="45.89327" lon="5.89521">
        <ele>503.8681641</ele>
        <time>2012-10-28T11:32:22Z</time>
      </trkpt>
      <trkpt lat="45.89341" lon="5.89522">
        <ele>505.3101807</ele>
        <time>2012-10-28T11:32:28Z</time>
      </trkpt>
      <trkpt lat="45.89351" lon="5.89521">
        <ele>505.7908936</ele>
        <time>2012-10-28T11:32:32Z</time>
      </trkpt>
      <trkpt lat="45.89363" lon="5.8952">
        <ele>506.7520752</ele>
        <time>2012-10-28T11:32:37Z</time>
      </trkpt>
      <trkpt lat="45.89376" lon="5.89521">
        <ele>508.6746826</ele>
        <time>2012-10-28T11:32:43Z</time>
      </trkpt>
      <trkpt lat="45.89391" lon="5.89525">
        <ele>510.1166992</ele>
        <time>2012-10-28T11:32:49Z</time>
      </trkpt>
      <trkpt lat="45.89403" lon="5.89527">
        <ele>509.6361084</ele>
        <time>2012-10-28T11:32:54Z</time>
      </trkpt>
      <trkpt lat="45.89416" lon="5.89533">
        <ele>510.1166992</ele>
        <time>2012-10-28T11:32:59Z</time>
      </trkpt>
      <trkpt lat="45.89426" lon="5.89536">
        <ele>510.59729</ele>
        <time>2012-10-28T11:33:03Z</time>
      </trkpt>
      <trkpt lat="45.89438" lon="5.89543">
        <ele>511.5587158</ele>
        <time>2012-10-28T11:33:09Z</time>
      </trkpt>
      <trkpt lat="45.89449" lon="5.89553">
        <ele>512.5200195</ele>
        <time>2012-10-28T11:33:14Z</time>
      </trkpt>
      <trkpt lat="45.89457" lon="5.8956">
        <ele>511.5587158</ele>
        <time>2012-10-28T11:33:18Z</time>
      </trkpt>
      <trkpt lat="45.89465" lon="5.89572">
        <ele>510.59729</ele>
        <time>2012-10-28T11:33:23Z</time>
      </trkpt>
      <trkpt lat="45.89471" lon="5.89583">
        <ele>512.0394287</ele>
        <time>2012-10-28T11:33:27Z</time>
      </trkpt>
      <trkpt lat="45.8948" lon="5.89589">
        <ele>513.4814453</ele>
        <time>2012-10-28T11:33:31Z</time>
      </trkpt>
      <trkpt lat="45.89493" lon="5.89583">
        <ele>514.9233398</ele>
        <time>2012-10-28T11:33:36Z</time>
      </trkpt>
      <trkpt lat="45.89497" lon="5.89577">
        <ele>515.8846436</ele>
        <time>2012-10-28T11:33:38Z</time>
      </trkpt>
      <trkpt lat="45.89505" lon="5.89556">
        <ele>519.2492676</ele>
        <time>2012-10-28T11:33:44Z</time>
      </trkpt>
      <trkpt lat="45.89508" lon="5.89543">
        <ele>521.1719971</ele>
        <time>2012-10-28T11:33:48Z</time>
      </trkpt>
      <trkpt lat="45.89509" lon="5.89531">
        <ele>522.6138916</ele>
        <time>2012-10-28T11:33:52Z</time>
      </trkpt>
      <trkpt lat="45.89464" lon="5.89505">
        <ele>514.9233398</ele>
        <time>2012-10-28T11:59:36Z</time>
      </trkpt>
    </trkseg>
    </trkseg>
  </trk>
</gpx>